<?xml version="1.0" encoding="UTF-8"?>
<gpx version="1.0" creator="Trackator" xmlns:xsi="http://www.w3.org/2001/XMLSchema-instance" xmlns="http://www.topografix.com/GPX/1/0" xmlns:topografix="http://www.topografix.com/GPX/Private/TopoGrafix/0/1" xsi:schemaLocation="http://www.topografix.com/GPX/1/0 http://www.topografix.com/GPX/1/0/gpx.xsd http://www.topografix.com/GPX/Private/TopoGrafix/0/1 http://www.topografix.com/GPX/Private/TopoGrafix/0/1/topografix.xsd">
<metadata>
<link href="http://www.trackator.com">
<text>Trackator</text>
</link>
</metadata>
<time>2015-11-14T:33:48Z</time>
<trk>
<name>Track: </name>
<desc>Hiking</desc>
<trkseg>
<trkpt lat="40.75172952" lon="-4.01699274">
<ele>1534</ele>
<time>2015-11-14T:33:48Z</time>
</trkpt>
<trkpt lat="40.75172793" lon="-4.01698573">
<ele>1536</ele>
<time>2015-11-14T10:33:50Z</time>
</trkpt>
<trkpt lat="40.7517349" lon="-4.01692518">
<ele>1531</ele>
<time>2015-11-14T10:33:52Z</time>
</trkpt>
<trkpt lat="40.7516925" lon="-4.01693528">
<ele>1530</ele>
<time>2015-11-14T10:33:54Z</time>
</trkpt>
<trkpt lat="40.75170267" lon="-4.0169305">
<ele>1528</ele>
<time>2015-11-14T10:33:56Z</time>
</trkpt>
<trkpt lat="40.75168547" lon="-4.01690683">
<ele>1525</ele>
<time>2015-11-14T10:33:58Z</time>
</trkpt>
<trkpt lat="40.75165323" lon="-4.01688424">
<ele>1525</ele>
<time>2015-11-14T10:34:00Z</time>
</trkpt>
<trkpt lat="40.7516528" lon="-4.01689707">
<ele>1523</ele>
<time>2015-11-14T10:34:02Z</time>
</trkpt>
<trkpt lat="40.75162757" lon="-4.01691171">
<ele>1521</ele>
<time>2015-11-14T10:34:04Z</time>
</trkpt>
<trkpt lat="40.75160023" lon="-4.01689618">
<ele>1521</ele>
<time>2015-11-14T10:34:06Z</time>
</trkpt>
<trkpt lat="40.75157479" lon="-4.01685878">
<ele>1521</ele>
<time>2015-11-14T10:34:08Z</time>
</trkpt>
<trkpt lat="40.75154978" lon="-4.01683687">
<ele>1521</ele>
<time>2015-11-14T10:34:10Z</time>
</trkpt>
<trkpt lat="40.75153211" lon="-4.01681673">
<ele>1523</ele>
<time>2015-11-14T10:34:12Z</time>
</trkpt>
<trkpt lat="40.75153078" lon="-4.01676016">
<ele>1526</ele>
<time>2015-11-14T10:34:14Z</time>
</trkpt>
<trkpt lat="40.75150875" lon="-4.01672953">
<ele>1525</ele>
<time>2015-11-14T10:34:16Z</time>
</trkpt>
<trkpt lat="40.75148313" lon="-4.01672273">
<ele>1523</ele>
<time>2015-11-14T10:34:18Z</time>
</trkpt>
<trkpt lat="40.75145593" lon="-4.01671757">
<ele>1522</ele>
<time>2015-11-14T10:34:20Z</time>
</trkpt>
<trkpt lat="40.7514282" lon="-4.01670974">
<ele>1522</ele>
<time>2015-11-14T10:34:22Z</time>
</trkpt>
<trkpt lat="40.75140295" lon="-4.0166943">
<ele>1523</ele>
<time>2015-11-14T10:34:24Z</time>
</trkpt>
<trkpt lat="40.75138064" lon="-4.0166845">
<ele>1523</ele>
<time>2015-11-14T10:34:26Z</time>
</trkpt>
<trkpt lat="40.75136054" lon="-4.01667907">
<ele>1522</ele>
<time>2015-11-14T10:34:28Z</time>
</trkpt>
<trkpt lat="40.75134691" lon="-4.01666722">
<ele>1521</ele>
<time>2015-11-14T10:34:30Z</time>
</trkpt>
<trkpt lat="40.75133585" lon="-4.0166454">
<ele>1522</ele>
<time>2015-11-14T10:34:32Z</time>
</trkpt>
<trkpt lat="40.75131409" lon="-4.01665163">
<ele>1521</ele>
<time>2015-11-14T10:34:34Z</time>
</trkpt>
<trkpt lat="40.75129887" lon="-4.01667055">
<ele>1520</ele>
<time>2015-11-14T10:34:36Z</time>
</trkpt>
<trkpt lat="40.7512837" lon="-4.01665143">
<ele>1521</ele>
<time>2015-11-14T10:34:38Z</time>
</trkpt>
<trkpt lat="40.7512606" lon="-4.01662633">
<ele>1520</ele>
<time>2015-11-14T10:34:40Z</time>
</trkpt>
<trkpt lat="40.7512323" lon="-4.01661446">
<ele>1523</ele>
<time>2015-11-14T10:34:42Z</time>
</trkpt>
<trkpt lat="40.75120879" lon="-4.01659698">
<ele>1522</ele>
<time>2015-11-14T10:34:44Z</time>
</trkpt>
<trkpt lat="40.75118531" lon="-4.01657873">
<ele>1525</ele>
<time>2015-11-14T10:34:46Z</time>
</trkpt>
<trkpt lat="40.75116614" lon="-4.01656506">
<ele>1527</ele>
<time>2015-11-14T10:34:48Z</time>
</trkpt>
<trkpt lat="40.75115228" lon="-4.01654662">
<ele>1526</ele>
<time>2015-11-14T10:34:50Z</time>
</trkpt>
<trkpt lat="40.75112936" lon="-4.01652132">
<ele>1526</ele>
<time>2015-11-14T10:34:54Z</time>
</trkpt>
<trkpt lat="40.75112284" lon="-4.0165349">
<ele>1528</ele>
<time>2015-11-14T10:34:56Z</time>
</trkpt>
<trkpt lat="40.75111096" lon="-4.01652504">
<ele>1530</ele>
<time>2015-11-14T10:34:58Z</time>
</trkpt>
<trkpt lat="40.75110742" lon="-4.01652198">
<ele>1526</ele>
<time>2015-11-14T10:35:00Z</time>
</trkpt>
<trkpt lat="40.75109476" lon="-4.01649891">
<ele>1527</ele>
<time>2015-11-14T10:35:04Z</time>
</trkpt>
<trkpt lat="40.75107245" lon="-4.01648782">
<ele>1525</ele>
<time>2015-11-14T10:35:06Z</time>
</trkpt>
<trkpt lat="40.751046529999996" lon="-4.01647417">
<ele>1524</ele>
<time>2015-11-14T10:35:08Z</time>
</trkpt>
<trkpt lat="40.75102061" lon="-4.01645586">
<ele>1525</ele>
<time>2015-11-14T10:35:10Z</time>
</trkpt>
<trkpt lat="40.75099444" lon="-4.01643728">
<ele>1524</ele>
<time>2015-11-14T10:35:12Z</time>
</trkpt>
<trkpt lat="40.75096937" lon="-4.01641726">
<ele>1525</ele>
<time>2015-11-14T10:35:14Z</time>
</trkpt>
<trkpt lat="40.75094566" lon="-4.01639648">
<ele>1525</ele>
<time>2015-11-14T10:35:16Z</time>
</trkpt>
<trkpt lat="40.75092478" lon="-4.01637651">
<ele>1526</ele>
<time>2015-11-14T10:35:18Z</time>
</trkpt>
<trkpt lat="40.75090222" lon="-4.01635735">
<ele>1527</ele>
<time>2015-11-14T10:35:20Z</time>
</trkpt>
<trkpt lat="40.75088001" lon="-4.01634002">
<ele>1525</ele>
<time>2015-11-14T10:35:22Z</time>
</trkpt>
<trkpt lat="40.75085734" lon="-4.01632704">
<ele>1524</ele>
<time>2015-11-14T10:35:24Z</time>
</trkpt>
<trkpt lat="40.75083562" lon="-4.01631304">
<ele>1524</ele>
<time>2015-11-14T10:35:26Z</time>
</trkpt>
<trkpt lat="40.7508129" lon="-4.01630222">
<ele>1524</ele>
<time>2015-11-14T10:35:28Z</time>
</trkpt>
<trkpt lat="40.75078793" lon="-4.01629445">
<ele>1524</ele>
<time>2015-11-14T10:35:30Z</time>
</trkpt>
<trkpt lat="40.75076754" lon="-4.01628191">
<ele>1524</ele>
<time>2015-11-14T10:35:32Z</time>
</trkpt>
<trkpt lat="40.75075263" lon="-4.01626986">
<ele>1524</ele>
<time>2015-11-14T10:35:34Z</time>
</trkpt>
<trkpt lat="40.75073464" lon="-4.01626039">
<ele>1524</ele>
<time>2015-11-14T10:35:36Z</time>
</trkpt>
<trkpt lat="40.7507145" lon="-4.01624852">
<ele>1524</ele>
<time>2015-11-14T10:35:38Z</time>
</trkpt>
<trkpt lat="40.75067436" lon="-4.01622935">
<ele>1524</ele>
<time>2015-11-14T10:35:42Z</time>
</trkpt>
<trkpt lat="40.75065415" lon="-4.01622857">
<ele>1525</ele>
<time>2015-11-14T10:35:44Z</time>
</trkpt>
<trkpt lat="40.75063299" lon="-4.01622891">
<ele>1525</ele>
<time>2015-11-14T10:35:46Z</time>
</trkpt>
<trkpt lat="40.75060981" lon="-4.01621803">
<ele>1524</ele>
<time>2015-11-14T10:35:48Z</time>
</trkpt>
<trkpt lat="40.75058965" lon="-4.01620411">
<ele>1524</ele>
<time>2015-11-14T10:35:50Z</time>
</trkpt>
<trkpt lat="40.75056623" lon="-4.01619764">
<ele>1523</ele>
<time>2015-11-14T10:35:52Z</time>
</trkpt>
<trkpt lat="40.7505415" lon="-4.01619957">
<ele>1523</ele>
<time>2015-11-14T10:35:54Z</time>
</trkpt>
<trkpt lat="40.75051683" lon="-4.01619285">
<ele>1523</ele>
<time>2015-11-14T10:35:56Z</time>
</trkpt>
<trkpt lat="40.75049492" lon="-4.01618259">
<ele>1524</ele>
<time>2015-11-14T10:35:58Z</time>
</trkpt>
<trkpt lat="40.75047023" lon="-4.01617926">
<ele>1524</ele>
<time>2015-11-14T10:36:00Z</time>
</trkpt>
<trkpt lat="40.75044811" lon="-4.01617197">
<ele>1523</ele>
<time>2015-11-14T10:36:02Z</time>
</trkpt>
<trkpt lat="40.75043644" lon="-4.01614428">
<ele>1522</ele>
<time>2015-11-14T10:36:04Z</time>
</trkpt>
<trkpt lat="40.750416799999996" lon="-4.01613857">
<ele>1525</ele>
<time>2015-11-14T10:36:06Z</time>
</trkpt>
<trkpt lat="40.75038238" lon="-4.01613119">
<ele>1524</ele>
<time>2015-11-14T10:36:09Z</time>
</trkpt>
<trkpt lat="40.75035981" lon="-4.01612676">
<ele>1524</ele>
<time>2015-11-14T10:36:11Z</time>
</trkpt>
<trkpt lat="40.75033715" lon="-4.01612525">
<ele>1524</ele>
<time>2015-11-14T10:36:13Z</time>
</trkpt>
<trkpt lat="40.7503134" lon="-4.01611201">
<ele>1523</ele>
<time>2015-11-14T10:36:15Z</time>
</trkpt>
<trkpt lat="40.7502916" lon="-4.01610513">
<ele>1523</ele>
<time>2015-11-14T10:36:17Z</time>
</trkpt>
<trkpt lat="40.75026883" lon="-4.01610361">
<ele>1524</ele>
<time>2015-11-14T10:36:19Z</time>
</trkpt>
<trkpt lat="40.750217" lon="-4.01609409">
<ele>1522</ele>
<time>2015-11-14T10:36:23Z</time>
</trkpt>
<trkpt lat="40.750198" lon="-4.01608317">
<ele>1523</ele>
<time>2015-11-14T10:36:25Z</time>
</trkpt>
<trkpt lat="40.75017544" lon="-4.01606685">
<ele>1518</ele>
<time>2015-11-14T10:36:27Z</time>
</trkpt>
<trkpt lat="40.75014878" lon="-4.01605903">
<ele>1517</ele>
<time>2015-11-14T10:36:29Z</time>
</trkpt>
<trkpt lat="40.75012544" lon="-4.0160468">
<ele>1517</ele>
<time>2015-11-14T10:36:31Z</time>
</trkpt>
<trkpt lat="40.7501152" lon="-4.01601911">
<ele>1517</ele>
<time>2015-11-14T10:36:33Z</time>
</trkpt>
<trkpt lat="40.75009004" lon="-4.01598054">
<ele>1518</ele>
<time>2015-11-14T10:36:35Z</time>
</trkpt>
<trkpt lat="40.75005792" lon="-4.01596593">
<ele>1520</ele>
<time>2015-11-14T10:36:37Z</time>
</trkpt>
<trkpt lat="40.7500241" lon="-4.01596565">
<ele>1521</ele>
<time>2015-11-14T10:36:39Z</time>
</trkpt>
<trkpt lat="40.74999358" lon="-4.01597503">
<ele>1524</ele>
<time>2015-11-14T10:36:41Z</time>
</trkpt>
<trkpt lat="40.74996562" lon="-4.01598345">
<ele>1526</ele>
<time>2015-11-14T10:36:43Z</time>
</trkpt>
<trkpt lat="40.74993278" lon="-4.01598217">
<ele>1529</ele>
<time>2015-11-14T10:36:45Z</time>
</trkpt>
<trkpt lat="40.74989619" lon="-4.01598118">
<ele>1531</ele>
<time>2015-11-14T10:36:47Z</time>
</trkpt>
<trkpt lat="40.74986119" lon="-4.01598231">
<ele>1531</ele>
<time>2015-11-14T10:36:49Z</time>
</trkpt>
<trkpt lat="40.74983255" lon="-4.01599315">
<ele>1534</ele>
<time>2015-11-14T10:36:51Z</time>
</trkpt>
<trkpt lat="40.74980138" lon="-4.01600084">
<ele>1539</ele>
<time>2015-11-14T10:36:53Z</time>
</trkpt>
<trkpt lat="40.74977048" lon="-4.01600686">
<ele>1540</ele>
<time>2015-11-14T10:36:55Z</time>
</trkpt>
<trkpt lat="40.74974539" lon="-4.01601562">
<ele>1539</ele>
<time>2015-11-14T10:36:57Z</time>
</trkpt>
<trkpt lat="40.74972418" lon="-4.01602137">
<ele>1534</ele>
<time>2015-11-14T10:36:59Z</time>
</trkpt>
<trkpt lat="40.7497009" lon="-4.01603012">
<ele>1536</ele>
<time>2015-11-14T10:37:01Z</time>
</trkpt>
<trkpt lat="40.74967584" lon="-4.01603022">
<ele>1534</ele>
<time>2015-11-14T10:37:03Z</time>
</trkpt>
<trkpt lat="40.74965039" lon="-4.01603057">
<ele>1536</ele>
<time>2015-11-14T10:37:05Z</time>
</trkpt>
<trkpt lat="40.7496284" lon="-4.01602986">
<ele>1536</ele>
<time>2015-11-14T10:37:07Z</time>
</trkpt>
<trkpt lat="40.74960081" lon="-4.01602663">
<ele>1540</ele>
<time>2015-11-14T10:37:09Z</time>
</trkpt>
<trkpt lat="40.74957409" lon="-4.01602807">
<ele>1540</ele>
<time>2015-11-14T10:37:11Z</time>
</trkpt>
<trkpt lat="40.7495533" lon="-4.01603454">
<ele>1539</ele>
<time>2015-11-14T10:37:13Z</time>
</trkpt>
<trkpt lat="40.74953358" lon="-4.01604528">
<ele>1540</ele>
<time>2015-11-14T10:37:15Z</time>
</trkpt>
<trkpt lat="40.74951193" lon="-4.01606161">
<ele>1540</ele>
<time>2015-11-14T10:37:17Z</time>
</trkpt>
<trkpt lat="40.74950365" lon="-4.01606797">
<ele>1539</ele>
<time>2015-11-14T10:37:19Z</time>
</trkpt>
<trkpt lat="40.74948502" lon="-4.01607554">
<ele>1541</ele>
<time>2015-11-14T10:37:21Z</time>
</trkpt>
<trkpt lat="40.74946146" lon="-4.01608012">
<ele>1540</ele>
<time>2015-11-14T10:37:23Z</time>
</trkpt>
<trkpt lat="40.74944179" lon="-4.01608765">
<ele>1542</ele>
<time>2015-11-14T10:37:25Z</time>
</trkpt>
<trkpt lat="40.74942177" lon="-4.01609478">
<ele>1544</ele>
<time>2015-11-14T10:37:27Z</time>
</trkpt>
<trkpt lat="40.7494012" lon="-4.01609892">
<ele>1543</ele>
<time>2015-11-14T10:37:29Z</time>
</trkpt>
<trkpt lat="40.74937813" lon="-4.01610496">
<ele>1544</ele>
<time>2015-11-14T10:37:31Z</time>
</trkpt>
<trkpt lat="40.74935611" lon="-4.01611293">
<ele>1543</ele>
<time>2015-11-14T10:37:33Z</time>
</trkpt>
<trkpt lat="40.74933591" lon="-4.01612491">
<ele>1544</ele>
<time>2015-11-14T10:37:35Z</time>
</trkpt>
<trkpt lat="40.74931359" lon="-4.01613878">
<ele>1545</ele>
<time>2015-11-14T10:37:37Z</time>
</trkpt>
<trkpt lat="40.74929095" lon="-4.01615687">
<ele>1544</ele>
<time>2015-11-14T10:37:39Z</time>
</trkpt>
<trkpt lat="40.74926629" lon="-4.01617223">
<ele>1544</ele>
<time>2015-11-14T10:37:41Z</time>
</trkpt>
<trkpt lat="40.7492341" lon="-4.01618608">
<ele>1544</ele>
<time>2015-11-14T10:37:43Z</time>
</trkpt>
<trkpt lat="40.74921325" lon="-4.01620454">
<ele>1544</ele>
<time>2015-11-14T10:37:45Z</time>
</trkpt>
<trkpt lat="40.7491979" lon="-4.01622279">
<ele>1544</ele>
<time>2015-11-14T10:37:47Z</time>
</trkpt>
<trkpt lat="40.7491883" lon="-4.01625546">
<ele>1540</ele>
<time>2015-11-14T10:37:49Z</time>
</trkpt>
<trkpt lat="40.74919376" lon="-4.01629071">
<ele>1536</ele>
<time>2015-11-14T10:37:51Z</time>
</trkpt>
<trkpt lat="40.74919515" lon="-4.01630844">
<ele>1536</ele>
<time>2015-11-14T10:37:53Z</time>
</trkpt>
<trkpt lat="40.74917424" lon="-4.01634631">
<ele>1536</ele>
<time>2015-11-14T10:37:57Z</time>
</trkpt>
<trkpt lat="40.74914064" lon="-4.01638027">
<ele>1539</ele>
<time>2015-11-14T10:37:59Z</time>
</trkpt>
<trkpt lat="40.74910393" lon="-4.01640404">
<ele>1539</ele>
<time>2015-11-14T10:38:01Z</time>
</trkpt>
<trkpt lat="40.74907939" lon="-4.01642392">
<ele>1540</ele>
<time>2015-11-14T10:38:03Z</time>
</trkpt>
<trkpt lat="40.74906469" lon="-4.0164335">
<ele>1540</ele>
<time>2015-11-14T10:38:05Z</time>
</trkpt>
<trkpt lat="40.74904529" lon="-4.01643502">
<ele>1540</ele>
<time>2015-11-14T10:38:07Z</time>
</trkpt>
<trkpt lat="40.74902112" lon="-4.01644525">
<ele>1538</ele>
<time>2015-11-14T10:38:09Z</time>
</trkpt>
<trkpt lat="40.74900063" lon="-4.01648455">
<ele>1540</ele>
<time>2015-11-14T10:38:11Z</time>
</trkpt>
<trkpt lat="40.74898478" lon="-4.01651879">
<ele>1542</ele>
<time>2015-11-14T10:38:13Z</time>
</trkpt>
<trkpt lat="40.74897168" lon="-4.01654464">
<ele>1544</ele>
<time>2015-11-14T10:38:15Z</time>
</trkpt>
<trkpt lat="40.7489641" lon="-4.01656788">
<ele>1545</ele>
<time>2015-11-14T10:38:17Z</time>
</trkpt>
<trkpt lat="40.74895355" lon="-4.0165859">
<ele>1545</ele>
<time>2015-11-14T10:38:19Z</time>
</trkpt>
<trkpt lat="40.74893687" lon="-4.01660502">
<ele>1546</ele>
<time>2015-11-14T10:38:21Z</time>
</trkpt>
<trkpt lat="40.74892418" lon="-4.01661885">
<ele>1545</ele>
<time>2015-11-14T10:38:23Z</time>
</trkpt>
<trkpt lat="40.74892356" lon="-4.01663956">
<ele>1544</ele>
<time>2015-11-14T10:38:25Z</time>
</trkpt>
<trkpt lat="40.74891829" lon="-4.01667158">
<ele>1541</ele>
<time>2015-11-14T10:38:27Z</time>
</trkpt>
<trkpt lat="40.74890591" lon="-4.01669576">
<ele>1540</ele>
<time>2015-11-14T10:38:29Z</time>
</trkpt>
<trkpt lat="40.74888918" lon="-4.01671777">
<ele>1540</ele>
<time>2015-11-14T10:38:31Z</time>
</trkpt>
<trkpt lat="40.74886945" lon="-4.01673637">
<ele>1541</ele>
<time>2015-11-14T10:38:33Z</time>
</trkpt>
<trkpt lat="40.74885402" lon="-4.01671726">
<ele>1538</ele>
<time>2015-11-14T10:38:35Z</time>
</trkpt>
<trkpt lat="40.74883156" lon="-4.0166997">
<ele>1532</ele>
<time>2015-11-14T10:38:37Z</time>
</trkpt>
<trkpt lat="40.74880546" lon="-4.01671822">
<ele>1529</ele>
<time>2015-11-14T10:38:39Z</time>
</trkpt>
<trkpt lat="40.74881391" lon="-4.01670644">
<ele>1528</ele>
<time>2015-11-14T10:38:41Z</time>
</trkpt>
<trkpt lat="40.7487945" lon="-4.01675179">
<ele>1529</ele>
<time>2015-11-14T10:38:43Z</time>
</trkpt>
<trkpt lat="40.74877301" lon="-4.0167878">
<ele>1529</ele>
<time>2015-11-14T10:38:45Z</time>
</trkpt>
<trkpt lat="40.74875399" lon="-4.01682248">
<ele>1529</ele>
<time>2015-11-14T10:38:47Z</time>
</trkpt>
<trkpt lat="40.74873716" lon="-4.01685495">
<ele>1530</ele>
<time>2015-11-14T10:38:49Z</time>
</trkpt>
<trkpt lat="40.74871863" lon="-4.01688092">
<ele>1530</ele>
<time>2015-11-14T10:38:51Z</time>
</trkpt>
<trkpt lat="40.74869968" lon="-4.01690029">
<ele>1530</ele>
<time>2015-11-14T10:38:53Z</time>
</trkpt>
<trkpt lat="40.74867645" lon="-4.01691382">
<ele>1528</ele>
<time>2015-11-14T10:38:55Z</time>
</trkpt>
<trkpt lat="40.74864809" lon="-4.01693885">
<ele>1527</ele>
<time>2015-11-14T10:38:57Z</time>
</trkpt>
<trkpt lat="40.74862276" lon="-4.01697242">
<ele>1527</ele>
<time>2015-11-14T10:38:59Z</time>
</trkpt>
<trkpt lat="40.74859138" lon="-4.01700502">
<ele>1527</ele>
<time>2015-11-14T10:39:01Z</time>
</trkpt>
<trkpt lat="40.74855844" lon="-4.01703914">
<ele>1529</ele>
<time>2015-11-14T10:39:03Z</time>
</trkpt>
<trkpt lat="40.74850649" lon="-4.01709897">
<ele>1529</ele>
<time>2015-11-14T10:39:07Z</time>
</trkpt>
<trkpt lat="40.74847944" lon="-4.01713388">
<ele>1528</ele>
<time>2015-11-14T10:39:09Z</time>
</trkpt>
<trkpt lat="40.74845498" lon="-4.01716537">
<ele>1528</ele>
<time>2015-11-14T10:39:11Z</time>
</trkpt>
<trkpt lat="40.74843222" lon="-4.01720104">
<ele>1529</ele>
<time>2015-11-14T10:39:13Z</time>
</trkpt>
<trkpt lat="40.74841178" lon="-4.01723423">
<ele>1530</ele>
<time>2015-11-14T10:39:15Z</time>
</trkpt>
<trkpt lat="40.74838612" lon="-4.0172531">
<ele>1529</ele>
<time>2015-11-14T10:39:17Z</time>
</trkpt>
<trkpt lat="40.74835773" lon="-4.01727174">
<ele>1531</ele>
<time>2015-11-14T10:39:19Z</time>
</trkpt>
<trkpt lat="40.74834048" lon="-4.01729537">
<ele>1534</ele>
<time>2015-11-14T10:39:21Z</time>
</trkpt>
<trkpt lat="40.74832895" lon="-4.01731966">
<ele>1535</ele>
<time>2015-11-14T10:39:23Z</time>
</trkpt>
<trkpt lat="40.74831222" lon="-4.01733421">
<ele>1535</ele>
<time>2015-11-14T10:39:25Z</time>
</trkpt>
<trkpt lat="40.74829459" lon="-4.01734256">
<ele>1536</ele>
<time>2015-11-14T10:39:27Z</time>
</trkpt>
<trkpt lat="40.74827114" lon="-4.01735649">
<ele>1536</ele>
<time>2015-11-14T10:39:29Z</time>
</trkpt>
<trkpt lat="40.74824848" lon="-4.017372">
<ele>1535</ele>
<time>2015-11-14T10:39:31Z</time>
</trkpt>
<trkpt lat="40.74822935" lon="-4.01738999">
<ele>1535</ele>
<time>2015-11-14T10:39:33Z</time>
</trkpt>
<trkpt lat="40.74820822" lon="-4.01740386">
<ele>1534</ele>
<time>2015-11-14T10:39:35Z</time>
</trkpt>
<trkpt lat="40.74816771" lon="-4.01744305">
<ele>1533</ele>
<time>2015-11-14T10:39:39Z</time>
</trkpt>
<trkpt lat="40.74814723" lon="-4.01746611">
<ele>1535</ele>
<time>2015-11-14T10:39:41Z</time>
</trkpt>
<trkpt lat="40.74812696" lon="-4.01749034">
<ele>1535</ele>
<time>2015-11-14T10:39:43Z</time>
</trkpt>
<trkpt lat="40.74809107" lon="-4.01753617">
<ele>1536</ele>
<time>2015-11-14T10:39:47Z</time>
</trkpt>
<trkpt lat="40.7480702" lon="-4.01755869">
<ele>1538</ele>
<time>2015-11-14T10:39:49Z</time>
</trkpt>
<trkpt lat="40.74804805" lon="-4.01757806">
<ele>1538</ele>
<time>2015-11-14T10:39:51Z</time>
</trkpt>
<trkpt lat="40.7480232" lon="-4.01760501">
<ele>1539</ele>
<time>2015-11-14T10:39:53Z</time>
</trkpt>
<trkpt lat="40.7479994" lon="-4.01763102">
<ele>1539</ele>
<time>2015-11-14T10:39:55Z</time>
</trkpt>
<trkpt lat="40.74797374" lon="-4.0176542">
<ele>1539</ele>
<time>2015-11-14T10:39:57Z</time>
</trkpt>
<trkpt lat="40.74794722" lon="-4.01767515">
<ele>1540</ele>
<time>2015-11-14T10:39:59Z</time>
</trkpt>
<trkpt lat="40.74792343" lon="-4.0176929">
<ele>1540</ele>
<time>2015-11-14T10:40:01Z</time>
</trkpt>
<trkpt lat="40.74790102" lon="-4.01771076">
<ele>1542</ele>
<time>2015-11-14T10:40:03Z</time>
</trkpt>
<trkpt lat="40.74788196" lon="-4.01772692">
<ele>1543</ele>
<time>2015-11-14T10:40:05Z</time>
</trkpt>
<trkpt lat="40.74785308" lon="-4.01774694">
<ele>1542</ele>
<time>2015-11-14T10:40:07Z</time>
</trkpt>
<trkpt lat="40.74782906" lon="-4.01776501">
<ele>1542</ele>
<time>2015-11-14T10:40:09Z</time>
</trkpt>
<trkpt lat="40.74780616" lon="-4.01778292">
<ele>1539</ele>
<time>2015-11-14T10:40:11Z</time>
</trkpt>
<trkpt lat="40.74778611" lon="-4.01779478">
<ele>1537</ele>
<time>2015-11-14T10:40:13Z</time>
</trkpt>
<trkpt lat="40.74776352" lon="-4.0178101">
<ele>1538</ele>
<time>2015-11-14T10:40:15Z</time>
</trkpt>
<trkpt lat="40.74773628" lon="-4.01782379">
<ele>1537</ele>
<time>2015-11-14T10:40:17Z</time>
</trkpt>
<trkpt lat="40.74771171" lon="-4.01783161">
<ele>1537</ele>
<time>2015-11-14T10:40:19Z</time>
</trkpt>
<trkpt lat="40.7476867" lon="-4.01784126">
<ele>1539</ele>
<time>2015-11-14T10:40:21Z</time>
</trkpt>
<trkpt lat="40.74766077" lon="-4.01785305">
<ele>1540</ele>
<time>2015-11-14T10:40:23Z</time>
</trkpt>
<trkpt lat="40.74763759" lon="-4.01786487">
<ele>1536</ele>
<time>2015-11-14T10:40:25Z</time>
</trkpt>
<trkpt lat="40.74761521" lon="-4.01787285">
<ele>1538</ele>
<time>2015-11-14T10:40:27Z</time>
</trkpt>
<trkpt lat="40.74759091" lon="-4.01787999">
<ele>1538</ele>
<time>2015-11-14T10:40:29Z</time>
</trkpt>
<trkpt lat="40.74756387" lon="-4.01788495">
<ele>1538</ele>
<time>2015-11-14T10:40:31Z</time>
</trkpt>
<trkpt lat="40.74753999" lon="-4.01788962">
<ele>1539</ele>
<time>2015-11-14T10:40:33Z</time>
</trkpt>
<trkpt lat="40.74751726" lon="-4.01789647">
<ele>1540</ele>
<time>2015-11-14T10:40:35Z</time>
</trkpt>
<trkpt lat="40.74750068" lon="-4.0179124">
<ele>1543</ele>
<time>2015-11-14T10:40:37Z</time>
</trkpt>
<trkpt lat="40.74748069" lon="-4.01792736">
<ele>1544</ele>
<time>2015-11-14T10:40:39Z</time>
</trkpt>
<trkpt lat="40.74746113" lon="-4.017945">
<ele>1544</ele>
<time>2015-11-14T10:40:41Z</time>
</trkpt>
<trkpt lat="40.74743903" lon="-4.01795264">
<ele>1542</ele>
<time>2015-11-14T10:40:43Z</time>
</trkpt>
<trkpt lat="40.74741335" lon="-4.01796387">
<ele>1542</ele>
<time>2015-11-14T10:40:45Z</time>
</trkpt>
<trkpt lat="40.74739435" lon="-4.01794527">
<ele>1545</ele>
<time>2015-11-14T10:40:47Z</time>
</trkpt>
<trkpt lat="40.74736941" lon="-4.01794177">
<ele>1544</ele>
<time>2015-11-14T10:40:49Z</time>
</trkpt>
<trkpt lat="40.74734196" lon="-4.0179371">
<ele>1543</ele>
<time>2015-11-14T10:40:51Z</time>
</trkpt>
<trkpt lat="40.74731737" lon="-4.01793714">
<ele>1542</ele>
<time>2015-11-14T10:40:53Z</time>
</trkpt>
<trkpt lat="40.74729229" lon="-4.01793899">
<ele>1543</ele>
<time>2015-11-14T10:40:55Z</time>
</trkpt>
<trkpt lat="40.74726401" lon="-4.01795218">
<ele>1542</ele>
<time>2015-11-14T10:40:57Z</time>
</trkpt>
<trkpt lat="40.74723956" lon="-4.01796691">
<ele>1540</ele>
<time>2015-11-14T10:40:59Z</time>
</trkpt>
<trkpt lat="40.74721788" lon="-4.01798768">
<ele>1540</ele>
<time>2015-11-14T10:41:01Z</time>
</trkpt>
<trkpt lat="40.74718714" lon="-4.01801587">
<ele>1536</ele>
<time>2015-11-14T10:41:03Z</time>
</trkpt>
<trkpt lat="40.74715307" lon="-4.01803653">
<ele>1539</ele>
<time>2015-11-14T10:41:05Z</time>
</trkpt>
<trkpt lat="40.7471213" lon="-4.01805194">
<ele>1538</ele>
<time>2015-11-14T10:41:07Z</time>
</trkpt>
<trkpt lat="40.74707556" lon="-4.01807331">
<ele>1540</ele>
<time>2015-11-14T10:41:11Z</time>
</trkpt>
<trkpt lat="40.74705132" lon="-4.01809186">
<ele>1541</ele>
<time>2015-11-14T10:41:13Z</time>
</trkpt>
<trkpt lat="40.74702563" lon="-4.01810952">
<ele>1541</ele>
<time>2015-11-14T10:41:15Z</time>
</trkpt>
<trkpt lat="40.74699812" lon="-4.01812228">
<ele>1542</ele>
<time>2015-11-14T10:41:17Z</time>
</trkpt>
<trkpt lat="40.74697203" lon="-4.01814198">
<ele>1543</ele>
<time>2015-11-14T10:41:19Z</time>
</trkpt>
<trkpt lat="40.74694453" lon="-4.01815811">
<ele>1544</ele>
<time>2015-11-14T10:41:21Z</time>
</trkpt>
<trkpt lat="40.74691609" lon="-4.01817292">
<ele>1543</ele>
<time>2015-11-14T10:41:23Z</time>
</trkpt>
<trkpt lat="40.74688564" lon="-4.01818774">
<ele>1543</ele>
<time>2015-11-14T10:41:25Z</time>
</trkpt>
<trkpt lat="40.74685755" lon="-4.01819657">
<ele>1544</ele>
<time>2015-11-14T10:41:27Z</time>
</trkpt>
<trkpt lat="40.74682967" lon="-4.01819804">
<ele>1542</ele>
<time>2015-11-14T10:41:29Z</time>
</trkpt>
<trkpt lat="40.74680287" lon="-4.01819574">
<ele>1543</ele>
<time>2015-11-14T10:41:31Z</time>
</trkpt>
<trkpt lat="40.74677737" lon="-4.01819414">
<ele>1546</ele>
<time>2015-11-14T10:41:33Z</time>
</trkpt>
<trkpt lat="40.74675162" lon="-4.01819477">
<ele>1547</ele>
<time>2015-11-14T10:41:35Z</time>
</trkpt>
<trkpt lat="40.74673015" lon="-4.01820193">
<ele>1546</ele>
<time>2015-11-14T10:41:37Z</time>
</trkpt>
<trkpt lat="40.7467078" lon="-4.01821318">
<ele>1546</ele>
<time>2015-11-14T10:41:39Z</time>
</trkpt>
<trkpt lat="40.74668535" lon="-4.01822533">
<ele>1546</ele>
<time>2015-11-14T10:41:41Z</time>
</trkpt>
<trkpt lat="40.74666481" lon="-4.01824508">
<ele>1546</ele>
<time>2015-11-14T10:41:43Z</time>
</trkpt>
<trkpt lat="40.74664324" lon="-4.01825239">
<ele>1545</ele>
<time>2015-11-14T10:41:45Z</time>
</trkpt>
<trkpt lat="40.74662008" lon="-4.0182589">
<ele>1548</ele>
<time>2015-11-14T10:41:47Z</time>
</trkpt>
<trkpt lat="40.74659487" lon="-4.01825769">
<ele>1545</ele>
<time>2015-11-14T10:41:49Z</time>
</trkpt>
<trkpt lat="40.74657037" lon="-4.01826393">
<ele>1543</ele>
<time>2015-11-14T10:41:51Z</time>
</trkpt>
<trkpt lat="40.7465465" lon="-4.01827069">
<ele>1541</ele>
<time>2015-11-14T10:41:53Z</time>
</trkpt>
<trkpt lat="40.74652183" lon="-4.01827552">
<ele>1541</ele>
<time>2015-11-14T10:41:55Z</time>
</trkpt>
<trkpt lat="40.74649641" lon="-4.01827136">
<ele>1542</ele>
<time>2015-11-14T10:41:57Z</time>
</trkpt>
<trkpt lat="40.74646803" lon="-4.01826949">
<ele>1544</ele>
<time>2015-11-14T10:41:59Z</time>
</trkpt>
<trkpt lat="40.74643937" lon="-4.0182632">
<ele>1543</ele>
<time>2015-11-14T10:42:01Z</time>
</trkpt>
<trkpt lat="40.7464109" lon="-4.01825994">
<ele>1543</ele>
<time>2015-11-14T10:42:03Z</time>
</trkpt>
<trkpt lat="40.74638271" lon="-4.01826107">
<ele>1545</ele>
<time>2015-11-14T10:42:05Z</time>
</trkpt>
<trkpt lat="40.74634525" lon="-4.01826783">
<ele>1546</ele>
<time>2015-11-14T10:42:07Z</time>
</trkpt>
<trkpt lat="40.74631085" lon="-4.01827472">
<ele>1546</ele>
<time>2015-11-14T10:42:09Z</time>
</trkpt>
<trkpt lat="40.74628056" lon="-4.01827872">
<ele>1545</ele>
<time>2015-11-14T10:42:11Z</time>
</trkpt>
<trkpt lat="40.74625571" lon="-4.01828392">
<ele>1546</ele>
<time>2015-11-14T10:42:13Z</time>
</trkpt>
<trkpt lat="40.74623078" lon="-4.0182845">
<ele>1545</ele>
<time>2015-11-14T10:42:15Z</time>
</trkpt>
<trkpt lat="40.74619847" lon="-4.0182914">
<ele>1550</ele>
<time>2015-11-14T10:42:19Z</time>
</trkpt>
<trkpt lat="40.74617942" lon="-4.01829782">
<ele>1550</ele>
<time>2015-11-14T10:42:21Z</time>
</trkpt>
<trkpt lat="40.74615784" lon="-4.01829961">
<ele>1548</ele>
<time>2015-11-14T10:42:23Z</time>
</trkpt>
<trkpt lat="40.74614079" lon="-4.01828967">
<ele>1544</ele>
<time>2015-11-14T10:42:25Z</time>
</trkpt>
<trkpt lat="40.7461075" lon="-4.01826409">
<ele>1542</ele>
<time>2015-11-14T10:42:29Z</time>
</trkpt>
<trkpt lat="40.74608621" lon="-4.01825975">
<ele>1541</ele>
<time>2015-11-14T10:42:31Z</time>
</trkpt>
<trkpt lat="40.74606329" lon="-4.0182583">
<ele>1543</ele>
<time>2015-11-14T10:42:33Z</time>
</trkpt>
<trkpt lat="40.7460307" lon="-4.01825427">
<ele>1542</ele>
<time>2015-11-14T10:42:35Z</time>
</trkpt>
<trkpt lat="40.74599462" lon="-4.01825273">
<ele>1542</ele>
<time>2015-11-14T10:42:37Z</time>
</trkpt>
<trkpt lat="40.74596532" lon="-4.01824232">
<ele>1540</ele>
<time>2015-11-14T10:42:39Z</time>
</trkpt>
<trkpt lat="40.74594171" lon="-4.01823028">
<ele>1541</ele>
<time>2015-11-14T10:42:41Z</time>
</trkpt>
<trkpt lat="40.74592056" lon="-4.01821736">
<ele>1540</ele>
<time>2015-11-14T10:42:43Z</time>
</trkpt>
<trkpt lat="40.74590358" lon="-4.01819556">
<ele>1540</ele>
<time>2015-11-14T10:42:45Z</time>
</trkpt>
<trkpt lat="40.74588255" lon="-4.01814533">
<ele>1543</ele>
<time>2015-11-14T10:42:49Z</time>
</trkpt>
<trkpt lat="40.74588093" lon="-4.0181176">
<ele>1546</ele>
<time>2015-11-14T10:42:51Z</time>
</trkpt>
<trkpt lat="40.74588095" lon="-4.01808788">
<ele>1549</ele>
<time>2015-11-14T10:42:53Z</time>
</trkpt>
<trkpt lat="40.74588228" lon="-4.01806009">
<ele>1551</ele>
<time>2015-11-14T10:42:55Z</time>
</trkpt>
<trkpt lat="40.74588854" lon="-4.01803557">
<ele>1552</ele>
<time>2015-11-14T10:42:57Z</time>
</trkpt>
<trkpt lat="40.74590322" lon="-4.01801372">
<ele>1552</ele>
<time>2015-11-14T10:42:59Z</time>
</trkpt>
<trkpt lat="40.74591332" lon="-4.01798343">
<ele>1554</ele>
<time>2015-11-14T10:43:01Z</time>
</trkpt>
<trkpt lat="40.74593067" lon="-4.01796177">
<ele>1559</ele>
<time>2015-11-14T10:43:03Z</time>
</trkpt>
<trkpt lat="40.74595038" lon="-4.01794587">
<ele>1560</ele>
<time>2015-11-14T10:43:05Z</time>
</trkpt>
<trkpt lat="40.74596902" lon="-4.01792594">
<ele>1559</ele>
<time>2015-11-14T10:43:07Z</time>
</trkpt>
<trkpt lat="40.74599474" lon="-4.01791568">
<ele>1559</ele>
<time>2015-11-14T10:43:09Z</time>
</trkpt>
<trkpt lat="40.74602138" lon="-4.01790851">
<ele>1562</ele>
<time>2015-11-14T10:43:11Z</time>
</trkpt>
<trkpt lat="40.7460441" lon="-4.01789504">
<ele>1564</ele>
<time>2015-11-14T10:43:13Z</time>
</trkpt>
<trkpt lat="40.74606642" lon="-4.01787891">
<ele>1564</ele>
<time>2015-11-14T10:43:15Z</time>
</trkpt>
<trkpt lat="40.74608857" lon="-4.01785926">
<ele>1566</ele>
<time>2015-11-14T10:43:17Z</time>
</trkpt>
<trkpt lat="40.74611632" lon="-4.01784847">
<ele>1567</ele>
<time>2015-11-14T10:43:19Z</time>
</trkpt>
<trkpt lat="40.74614189" lon="-4.01783764">
<ele>1568</ele>
<time>2015-11-14T10:43:21Z</time>
</trkpt>
<trkpt lat="40.74616492" lon="-4.01782836">
<ele>1567</ele>
<time>2015-11-14T10:43:23Z</time>
</trkpt>
<trkpt lat="40.74618774" lon="-4.01781408">
<ele>1568</ele>
<time>2015-11-14T10:43:25Z</time>
</trkpt>
<trkpt lat="40.74621284" lon="-4.01780276">
<ele>1568</ele>
<time>2015-11-14T10:43:27Z</time>
</trkpt>
<trkpt lat="40.74623668" lon="-4.01778914">
<ele>1567</ele>
<time>2015-11-14T10:43:29Z</time>
</trkpt>
<trkpt lat="40.7462607" lon="-4.01777326">
<ele>1566</ele>
<time>2015-11-14T10:43:31Z</time>
</trkpt>
<trkpt lat="40.74628523" lon="-4.01776506">
<ele>1566</ele>
<time>2015-11-14T10:43:33Z</time>
</trkpt>
<trkpt lat="40.74630914" lon="-4.01775406">
<ele>1566</ele>
<time>2015-11-14T10:43:35Z</time>
</trkpt>
<trkpt lat="40.74633053" lon="-4.0177428">
<ele>1566</ele>
<time>2015-11-14T10:43:37Z</time>
</trkpt>
<trkpt lat="40.74635189" lon="-4.01773418">
<ele>1567</ele>
<time>2015-11-14T10:43:39Z</time>
</trkpt>
<trkpt lat="40.74637479" lon="-4.01773478">
<ele>1567</ele>
<time>2015-11-14T10:43:41Z</time>
</trkpt>
<trkpt lat="40.74639695" lon="-4.01772733">
<ele>1567</ele>
<time>2015-11-14T10:43:43Z</time>
</trkpt>
<trkpt lat="40.74641601" lon="-4.01770189">
<ele>1567</ele>
<time>2015-11-14T10:43:45Z</time>
</trkpt>
<trkpt lat="40.74643312" lon="-4.01767807">
<ele>1567</ele>
<time>2015-11-14T10:43:47Z</time>
</trkpt>
<trkpt lat="40.74644027" lon="-4.0176687">
<ele>1567</ele>
<time>2015-11-14T10:43:49Z</time>
</trkpt>
<trkpt lat="40.7464421" lon="-4.01766728">
<ele>1567</ele>
<time>2015-11-14T10:43:51Z</time>
</trkpt>
<trkpt lat="40.7464445" lon="-4.01766377">
<ele>1567</ele>
<time>2015-11-14T10:43:53Z</time>
</trkpt>
<trkpt lat="40.74644658" lon="-4.01766252">
<ele>1567</ele>
<time>2015-11-14T10:43:55Z</time>
</trkpt>
<trkpt lat="40.74644952" lon="-4.01766227">
<ele>1567</ele>
<time>2015-11-14T10:43:57Z</time>
</trkpt>
<trkpt lat="40.74646083" lon="-4.01765575">
<ele>1568</ele>
<time>2015-11-14T10:43:59Z</time>
</trkpt>
<trkpt lat="40.74647704" lon="-4.01764458">
<ele>1568</ele>
<time>2015-11-14T10:44:01Z</time>
</trkpt>
<trkpt lat="40.74647693" lon="-4.01763984">
<ele>1568</ele>
<time>2015-11-14T10:44:03Z</time>
</trkpt>
<trkpt lat="40.74647423" lon="-4.01763604">
<ele>1568</ele>
<time>2015-11-14T10:44:05Z</time>
</trkpt>
<trkpt lat="40.74647215" lon="-4.01763401">
<ele>1569</ele>
<time>2015-11-14T10:44:07Z</time>
</trkpt>
<trkpt lat="40.74647735" lon="-4.0176326">
<ele>1568</ele>
<time>2015-11-14T10:44:09Z</time>
</trkpt>
<trkpt lat="40.74649287" lon="-4.01761793">
<ele>1568</ele>
<time>2015-11-14T10:44:11Z</time>
</trkpt>
<trkpt lat="40.74652321" lon="-4.01761033">
<ele>1570</ele>
<time>2015-11-14T10:44:13Z</time>
</trkpt>
<trkpt lat="40.74654883" lon="-4.01759556">
<ele>1570</ele>
<time>2015-11-14T10:44:15Z</time>
</trkpt>
<trkpt lat="40.746571" lon="-4.01757246">
<ele>1569</ele>
<time>2015-11-14T10:44:17Z</time>
</trkpt>
<trkpt lat="40.74659295" lon="-4.01755308">
<ele>1569</ele>
<time>2015-11-14T10:44:19Z</time>
</trkpt>
<trkpt lat="40.74661579" lon="-4.01754012">
<ele>1569</ele>
<time>2015-11-14T10:44:21Z</time>
</trkpt>
<trkpt lat="40.74663519" lon="-4.01752346">
<ele>1568</ele>
<time>2015-11-14T10:44:23Z</time>
</trkpt>
<trkpt lat="40.74665342" lon="-4.01750577">
<ele>1569</ele>
<time>2015-11-14T10:44:25Z</time>
</trkpt>
<trkpt lat="40.74667748" lon="-4.01749537">
<ele>1569</ele>
<time>2015-11-14T10:44:27Z</time>
</trkpt>
<trkpt lat="40.74669876" lon="-4.01747981">
<ele>1569</ele>
<time>2015-11-14T10:44:29Z</time>
</trkpt>
<trkpt lat="40.74671642" lon="-4.01745785">
<ele>1569</ele>
<time>2015-11-14T10:44:31Z</time>
</trkpt>
<trkpt lat="40.74673368" lon="-4.01743714">
<ele>1570</ele>
<time>2015-11-14T10:44:33Z</time>
</trkpt>
<trkpt lat="40.7467511" lon="-4.0174132">
<ele>1572</ele>
<time>2015-11-14T10:44:35Z</time>
</trkpt>
<trkpt lat="40.74676067" lon="-4.01738068">
<ele>1573</ele>
<time>2015-11-14T10:44:37Z</time>
</trkpt>
<trkpt lat="40.74676252" lon="-4.01737379">
<ele>1574</ele>
<time>2015-11-14T10:44:39Z</time>
</trkpt>
<trkpt lat="40.74676179" lon="-4.01737222">
<ele>1575</ele>
<time>2015-11-14T10:44:41Z</time>
</trkpt>
<trkpt lat="40.74676528" lon="-4.01735045">
<ele>1574</ele>
<time>2015-11-14T10:44:43Z</time>
</trkpt>
<trkpt lat="40.74678465" lon="-4.01732939">
<ele>1574</ele>
<time>2015-11-14T10:44:45Z</time>
</trkpt>
<trkpt lat="40.74680376" lon="-4.01730678">
<ele>1573</ele>
<time>2015-11-14T10:44:47Z</time>
</trkpt>
<trkpt lat="40.74681763" lon="-4.01728084">
<ele>1573</ele>
<time>2015-11-14T10:44:49Z</time>
</trkpt>
<trkpt lat="40.74682727" lon="-4.01724659">
<ele>1572</ele>
<time>2015-11-14T10:44:51Z</time>
</trkpt>
<trkpt lat="40.74684158" lon="-4.01722129">
<ele>1571</ele>
<time>2015-11-14T10:44:53Z</time>
</trkpt>
<trkpt lat="40.7468535" lon="-4.01719744">
<ele>1571</ele>
<time>2015-11-14T10:44:55Z</time>
</trkpt>
<trkpt lat="40.74686424" lon="-4.01717504">
<ele>1571</ele>
<time>2015-11-14T10:44:57Z</time>
</trkpt>
<trkpt lat="40.74687823" lon="-4.01715567">
<ele>1571</ele>
<time>2015-11-14T10:44:59Z</time>
</trkpt>
<trkpt lat="40.74689017" lon="-4.01713301">
<ele>1570</ele>
<time>2015-11-14T10:45:01Z</time>
</trkpt>
<trkpt lat="40.74689312" lon="-4.01709799">
<ele>1571</ele>
<time>2015-11-14T10:45:03Z</time>
</trkpt>
<trkpt lat="40.74690124" lon="-4.01706084">
<ele>1573</ele>
<time>2015-11-14T10:45:05Z</time>
</trkpt>
<trkpt lat="40.746919" lon="-4.01703129">
<ele>1573</ele>
<time>2015-11-14T10:45:07Z</time>
</trkpt>
<trkpt lat="40.74693738" lon="-4.01700556">
<ele>1573</ele>
<time>2015-11-14T10:45:09Z</time>
</trkpt>
<trkpt lat="40.74695288" lon="-4.016977">
<ele>1573</ele>
<time>2015-11-14T10:45:11Z</time>
</trkpt>
<trkpt lat="40.74696427" lon="-4.0169499">
<ele>1573</ele>
<time>2015-11-14T10:45:13Z</time>
</trkpt>
<trkpt lat="40.74697626" lon="-4.01692628">
<ele>1574</ele>
<time>2015-11-14T10:45:15Z</time>
</trkpt>
<trkpt lat="40.74699287" lon="-4.01690401">
<ele>1575</ele>
<time>2015-11-14T10:45:17Z</time>
</trkpt>
<trkpt lat="40.74700834" lon="-4.01688118">
<ele>1574</ele>
<time>2015-11-14T10:45:19Z</time>
</trkpt>
<trkpt lat="40.74702025" lon="-4.01684609">
<ele>1575</ele>
<time>2015-11-14T10:45:21Z</time>
</trkpt>
<trkpt lat="40.74702884" lon="-4.01680725">
<ele>1576</ele>
<time>2015-11-14T10:45:23Z</time>
</trkpt>
<trkpt lat="40.74704339" lon="-4.01677931">
<ele>1579</ele>
<time>2015-11-14T10:45:25Z</time>
</trkpt>
<trkpt lat="40.74705907" lon="-4.01675145">
<ele>1578</ele>
<time>2015-11-14T10:45:27Z</time>
</trkpt>
<trkpt lat="40.74707322" lon="-4.01672217">
<ele>1579</ele>
<time>2015-11-14T10:45:29Z</time>
</trkpt>
<trkpt lat="40.74708901" lon="-4.01669491">
<ele>1578</ele>
<time>2015-11-14T10:45:31Z</time>
</trkpt>
<trkpt lat="40.74710968" lon="-4.01667383">
<ele>1578</ele>
<time>2015-11-14T10:45:33Z</time>
</trkpt>
<trkpt lat="40.7471466" lon="-4.01662542">
<ele>1579</ele>
<time>2015-11-14T10:45:37Z</time>
</trkpt>
<trkpt lat="40.74716411" lon="-4.01659949">
<ele>1578</ele>
<time>2015-11-14T10:45:39Z</time>
</trkpt>
<trkpt lat="40.74718427" lon="-4.01657229">
<ele>1578</ele>
<time>2015-11-14T10:45:41Z</time>
</trkpt>
<trkpt lat="40.74720236" lon="-4.01654949">
<ele>1578</ele>
<time>2015-11-14T10:45:43Z</time>
</trkpt>
<trkpt lat="40.74721047" lon="-4.01654804">
<ele>1578</ele>
<time>2015-11-14T10:45:45Z</time>
</trkpt>
<trkpt lat="40.74722688" lon="-4.01653386">
<ele>1577</ele>
<time>2015-11-14T10:45:47Z</time>
</trkpt>
<trkpt lat="40.74726832" lon="-4.01648893">
<ele>1577</ele>
<time>2015-11-14T10:45:51Z</time>
</trkpt>
<trkpt lat="40.74728643" lon="-4.01646241">
<ele>1575</ele>
<time>2015-11-14T10:45:53Z</time>
</trkpt>
<trkpt lat="40.74731107" lon="-4.01643723">
<ele>1574</ele>
<time>2015-11-14T10:45:55Z</time>
</trkpt>
<trkpt lat="40.74733119" lon="-4.01641394">
<ele>1574</ele>
<time>2015-11-14T10:45:57Z</time>
</trkpt>
<trkpt lat="40.74735039" lon="-4.01639486">
<ele>1574</ele>
<time>2015-11-14T10:45:59Z</time>
</trkpt>
<trkpt lat="40.74736606" lon="-4.01637723">
<ele>1576</ele>
<time>2015-11-14T10:46:01Z</time>
</trkpt>
<trkpt lat="40.74738728" lon="-4.01636266">
<ele>1576</ele>
<time>2015-11-14T10:46:03Z</time>
</trkpt>
<trkpt lat="40.74741224" lon="-4.01634443">
<ele>1577</ele>
<time>2015-11-14T10:46:05Z</time>
</trkpt>
<trkpt lat="40.74743529" lon="-4.01631275">
<ele>1581</ele>
<time>2015-11-14T10:46:07Z</time>
</trkpt>
<trkpt lat="40.74745793" lon="-4.01627856">
<ele>1581</ele>
<time>2015-11-14T10:46:09Z</time>
</trkpt>
<trkpt lat="40.74748055" lon="-4.01625107">
<ele>1581</ele>
<time>2015-11-14T10:46:11Z</time>
</trkpt>
<trkpt lat="40.74750244" lon="-4.01622265">
<ele>1580</ele>
<time>2015-11-14T10:46:13Z</time>
</trkpt>
<trkpt lat="40.74752483" lon="-4.01619857">
<ele>1579</ele>
<time>2015-11-14T10:46:15Z</time>
</trkpt>
<trkpt lat="40.74754669" lon="-4.01617692">
<ele>1581</ele>
<time>2015-11-14T10:46:17Z</time>
</trkpt>
<trkpt lat="40.74757029" lon="-4.0161599">
<ele>1580</ele>
<time>2015-11-14T10:46:19Z</time>
</trkpt>
<trkpt lat="40.74759269" lon="-4.01614193">
<ele>1580</ele>
<time>2015-11-14T10:46:21Z</time>
</trkpt>
<trkpt lat="40.74761284" lon="-4.016125">
<ele>1580</ele>
<time>2015-11-14T10:46:23Z</time>
</trkpt>
<trkpt lat="40.74763469" lon="-4.01611091">
<ele>1578</ele>
<time>2015-11-14T10:46:25Z</time>
</trkpt>
<trkpt lat="40.7476581" lon="-4.01609586">
<ele>1578</ele>
<time>2015-11-14T10:46:27Z</time>
</trkpt>
<trkpt lat="40.74767954" lon="-4.01606963">
<ele>1577</ele>
<time>2015-11-14T10:46:29Z</time>
</trkpt>
<trkpt lat="40.74768345" lon="-4.01607165">
<ele>1579</ele>
<time>2015-11-14T10:46:31Z</time>
</trkpt>
<trkpt lat="40.74767913" lon="-4.01607355">
<ele>1579</ele>
<time>2015-11-14T10:46:33Z</time>
</trkpt>
<trkpt lat="40.74769143" lon="-4.01607089">
<ele>1580</ele>
<time>2015-11-14T10:46:35Z</time>
</trkpt>
<trkpt lat="40.7477028" lon="-4.01605686">
<ele>1580</ele>
<time>2015-11-14T10:46:37Z</time>
</trkpt>
<trkpt lat="40.74771354" lon="-4.01603699">
<ele>1581</ele>
<time>2015-11-14T10:46:39Z</time>
</trkpt>
<trkpt lat="40.74773576" lon="-4.01602066">
<ele>1582</ele>
<time>2015-11-14T10:46:41Z</time>
</trkpt>
<trkpt lat="40.74775793" lon="-4.01598429">
<ele>1583</ele>
<time>2015-11-14T10:46:43Z</time>
</trkpt>
<trkpt lat="40.74777308" lon="-4.01595193">
<ele>1585</ele>
<time>2015-11-14T10:46:45Z</time>
</trkpt>
<trkpt lat="40.74778973" lon="-4.01593483">
<ele>1584</ele>
<time>2015-11-14T10:46:47Z</time>
</trkpt>
<trkpt lat="40.74780949" lon="-4.01592697">
<ele>1583</ele>
<time>2015-11-14T10:46:49Z</time>
</trkpt>
<trkpt lat="40.74782495" lon="-4.01591227">
<ele>1583</ele>
<time>2015-11-14T10:46:51Z</time>
</trkpt>
<trkpt lat="40.74784123" lon="-4.01589063">
<ele>1585</ele>
<time>2015-11-14T10:46:53Z</time>
</trkpt>
<trkpt lat="40.74786156" lon="-4.0158716">
<ele>1590</ele>
<time>2015-11-14T10:46:55Z</time>
</trkpt>
<trkpt lat="40.74787839" lon="-4.01585582">
<ele>1588</ele>
<time>2015-11-14T10:46:57Z</time>
</trkpt>
<trkpt lat="40.74789812" lon="-4.01583899">
<ele>1587</ele>
<time>2015-11-14T10:46:59Z</time>
</trkpt>
<trkpt lat="40.74791185" lon="-4.0158103">
<ele>1586</ele>
<time>2015-11-14T10:47:01Z</time>
</trkpt>
<trkpt lat="40.74794697" lon="-4.01576543">
<ele>1582</ele>
<time>2015-11-14T10:47:05Z</time>
</trkpt>
<trkpt lat="40.74796074" lon="-4.01574179">
<ele>1583</ele>
<time>2015-11-14T10:47:07Z</time>
</trkpt>
<trkpt lat="40.74797628" lon="-4.01571587">
<ele>1584</ele>
<time>2015-11-14T10:47:09Z</time>
</trkpt>
<trkpt lat="40.74801387" lon="-4.01567549">
<ele>1582</ele>
<time>2015-11-14T10:47:13Z</time>
</trkpt>
<trkpt lat="40.74802572" lon="-4.01565706">
<ele>1581</ele>
<time>2015-11-14T10:47:15Z</time>
</trkpt>
<trkpt lat="40.74801021" lon="-4.01565257">
<ele>1581</ele>
<time>2015-11-14T10:47:17Z</time>
</trkpt>
<trkpt lat="40.74800676" lon="-4.01564855">
<ele>1581</ele>
<time>2015-11-14T10:47:19Z</time>
</trkpt>
<trkpt lat="40.74800585" lon="-4.0156469">
<ele>1581</ele>
<time>2015-11-14T10:47:21Z</time>
</trkpt>
<trkpt lat="40.74800522" lon="-4.01564991">
<ele>1582</ele>
<time>2015-11-14T10:47:23Z</time>
</trkpt>
<trkpt lat="40.74800579" lon="-4.01564703">
<ele>1582</ele>
<time>2015-11-14T10:47:25Z</time>
</trkpt>
<trkpt lat="40.74800676" lon="-4.01564537">
<ele>1582</ele>
<time>2015-11-14T10:47:27Z</time>
</trkpt>
<trkpt lat="40.74800889" lon="-4.01564665">
<ele>1582</ele>
<time>2015-11-14T10:47:29Z</time>
</trkpt>
<trkpt lat="40.7480091" lon="-4.01564658">
<ele>1582</ele>
<time>2015-11-14T10:47:31Z</time>
</trkpt>
<trkpt lat="40.74800916" lon="-4.01564675">
<ele>1582</ele>
<time>2015-11-14T10:47:33Z</time>
</trkpt>
<trkpt lat="40.7480092" lon="-4.01564694">
<ele>1582</ele>
<time>2015-11-14T10:47:35Z</time>
</trkpt>
<trkpt lat="40.7480092" lon="-4.01564703">
<ele>1582</ele>
<time>2015-11-14T10:47:37Z</time>
</trkpt>
<trkpt lat="40.74800921" lon="-4.0156471">
<ele>1582</ele>
<time>2015-11-14T10:47:39Z</time>
</trkpt>
<trkpt lat="40.7480092" lon="-4.01564713">
<ele>1582</ele>
<time>2015-11-14T10:47:41Z</time>
</trkpt>
<trkpt lat="40.74800919" lon="-4.01564709">
<ele>1582</ele>
<time>2015-11-14T10:47:43Z</time>
</trkpt>
<trkpt lat="40.74800921" lon="-4.01564704">
<ele>1582</ele>
<time>2015-11-14T10:47:45Z</time>
</trkpt>
<trkpt lat="40.74800931" lon="-4.01564718">
<ele>1582</ele>
<time>2015-11-14T10:47:47Z</time>
</trkpt>
<trkpt lat="40.74800941" lon="-4.01564712">
<ele>1582</ele>
<time>2015-11-14T10:47:49Z</time>
</trkpt>
<trkpt lat="40.74800953" lon="-4.01564714">
<ele>1582</ele>
<time>2015-11-14T10:47:51Z</time>
</trkpt>
<trkpt lat="40.74800954" lon="-4.0156472">
<ele>1582</ele>
<time>2015-11-14T10:47:53Z</time>
</trkpt>
<trkpt lat="40.74800957" lon="-4.0156472">
<ele>1582</ele>
<time>2015-11-14T10:47:55Z</time>
</trkpt>
<trkpt lat="40.74800958" lon="-4.01564719">
<ele>1582</ele>
<time>2015-11-14T10:47:57Z</time>
</trkpt>
<trkpt lat="40.74800961" lon="-4.01564729">
<ele>1582</ele>
<time>2015-11-14T10:48:01Z</time>
</trkpt>
<trkpt lat="40.74800961" lon="-4.01564729">
<ele>1582</ele>
<time>2015-11-14T10:48:03Z</time>
</trkpt>
<trkpt lat="40.7480096" lon="-4.0156473">
<ele>1582</ele>
<time>2015-11-14T10:48:05Z</time>
</trkpt>
<trkpt lat="40.7480096" lon="-4.01564732">
<ele>1582</ele>
<time>2015-11-14T10:48:07Z</time>
</trkpt>
<trkpt lat="40.74800959" lon="-4.01564732">
<ele>1582</ele>
<time>2015-11-14T10:48:09Z</time>
</trkpt>
<trkpt lat="40.74800958" lon="-4.01564733">
<ele>1582</ele>
<time>2015-11-14T10:48:11Z</time>
</trkpt>
<trkpt lat="40.74800957" lon="-4.01564734">
<ele>1582</ele>
<time>2015-11-14T10:48:13Z</time>
</trkpt>
<trkpt lat="40.74800958" lon="-4.01564734">
<ele>1582</ele>
<time>2015-11-14T10:48:15Z</time>
</trkpt>
<trkpt lat="40.74800959" lon="-4.01564733">
<ele>1582</ele>
<time>2015-11-14T10:48:17Z</time>
</trkpt>
<trkpt lat="40.74800959" lon="-4.01564735">
<ele>1582</ele>
<time>2015-11-14T10:48:19Z</time>
</trkpt>
<trkpt lat="40.74800957" lon="-4.01564737">
<ele>1582</ele>
<time>2015-11-14T10:48:21Z</time>
</trkpt>
<trkpt lat="40.74800956" lon="-4.01564736">
<ele>1582</ele>
<time>2015-11-14T10:48:23Z</time>
</trkpt>
<trkpt lat="40.74800956" lon="-4.01564739">
<ele>1582</ele>
<time>2015-11-14T10:48:25Z</time>
</trkpt>
<trkpt lat="40.74800956" lon="-4.01564747">
<ele>1582</ele>
<time>2015-11-14T10:48:27Z</time>
</trkpt>
<trkpt lat="40.74800962" lon="-4.01564752">
<ele>1582</ele>
<time>2015-11-14T10:48:29Z</time>
</trkpt>
<trkpt lat="40.74801185" lon="-4.01564413">
<ele>1583</ele>
<time>2015-11-14T10:48:31Z</time>
</trkpt>
<trkpt lat="40.74800852" lon="-4.01565524">
<ele>1583</ele>
<time>2015-11-14T10:48:33Z</time>
</trkpt>
<trkpt lat="40.74800935" lon="-4.01565945">
<ele>1584</ele>
<time>2015-11-14T10:48:35Z</time>
</trkpt>
<trkpt lat="40.74801317" lon="-4.01565381">
<ele>1584</ele>
<time>2015-11-14T10:48:37Z</time>
</trkpt>
<trkpt lat="40.74802063" lon="-4.01564554">
<ele>1586</ele>
<time>2015-11-14T10:48:39Z</time>
</trkpt>
<trkpt lat="40.74803495" lon="-4.01566762">
<ele>1587</ele>
<time>2015-11-14T10:48:41Z</time>
</trkpt>
<trkpt lat="40.74805358" lon="-4.01570355">
<ele>1590</ele>
<time>2015-11-14T10:48:43Z</time>
</trkpt>
<trkpt lat="40.74806027" lon="-4.01570825">
<ele>1589</ele>
<time>2015-11-14T10:48:45Z</time>
</trkpt>
<trkpt lat="40.74806308" lon="-4.01569659">
<ele>1589</ele>
<time>2015-11-14T10:48:47Z</time>
</trkpt>
<trkpt lat="40.74806452" lon="-4.01569139">
<ele>1590</ele>
<time>2015-11-14T10:48:49Z</time>
</trkpt>
<trkpt lat="40.74806725" lon="-4.01568878">
<ele>1591</ele>
<time>2015-11-14T10:48:51Z</time>
</trkpt>
<trkpt lat="40.7480658" lon="-4.0156903">
<ele>1592</ele>
<time>2015-11-14T10:48:53Z</time>
</trkpt>
<trkpt lat="40.74806189" lon="-4.01569104">
<ele>1593</ele>
<time>2015-11-14T10:48:55Z</time>
</trkpt>
<trkpt lat="40.74805832" lon="-4.0156904">
<ele>1593</ele>
<time>2015-11-14T10:48:57Z</time>
</trkpt>
<trkpt lat="40.74805805" lon="-4.01568875">
<ele>1593</ele>
<time>2015-11-14T10:48:59Z</time>
</trkpt>
<trkpt lat="40.7480601" lon="-4.01568792">
<ele>1593</ele>
<time>2015-11-14T10:49:01Z</time>
</trkpt>
<trkpt lat="40.74806244" lon="-4.01569347">
<ele>1593</ele>
<time>2015-11-14T10:49:03Z</time>
</trkpt>
<trkpt lat="40.74806306" lon="-4.01569416">
<ele>1593</ele>
<time>2015-11-14T10:49:05Z</time>
</trkpt>
<trkpt lat="40.74806294" lon="-4.01569705">
<ele>1593</ele>
<time>2015-11-14T10:49:07Z</time>
</trkpt>
<trkpt lat="40.74806303" lon="-4.01570101">
<ele>1594</ele>
<time>2015-11-14T10:49:09Z</time>
</trkpt>
<trkpt lat="40.74806367" lon="-4.01570303">
<ele>1594</ele>
<time>2015-11-14T10:49:11Z</time>
</trkpt>
<trkpt lat="40.74806235" lon="-4.0156946">
<ele>1593</ele>
<time>2015-11-14T10:49:13Z</time>
</trkpt>
<trkpt lat="40.74805863" lon="-4.01568218">
<ele>1592</ele>
<time>2015-11-14T10:49:15Z</time>
</trkpt>
<trkpt lat="40.74805586" lon="-4.01567166">
<ele>1592</ele>
<time>2015-11-14T10:49:17Z</time>
</trkpt>
<trkpt lat="40.7480543" lon="-4.01566744">
<ele>1592</ele>
<time>2015-11-14T10:49:19Z</time>
</trkpt>
<trkpt lat="40.74804899" lon="-4.01565765">
<ele>1592</ele>
<time>2015-11-14T10:49:21Z</time>
</trkpt>
<trkpt lat="40.74804701" lon="-4.01564899">
<ele>1593</ele>
<time>2015-11-14T10:49:23Z</time>
</trkpt>
<trkpt lat="40.74805149" lon="-4.01566666">
<ele>1593</ele>
<time>2015-11-14T10:49:25Z</time>
</trkpt>
<trkpt lat="40.74805411" lon="-4.01567231">
<ele>1593</ele>
<time>2015-11-14T10:49:27Z</time>
</trkpt>
<trkpt lat="40.74806442" lon="-4.01570086">
<ele>1592</ele>
<time>2015-11-14T10:49:29Z</time>
</trkpt>
<trkpt lat="40.74806683" lon="-4.01571153">
<ele>1592</ele>
<time>2015-11-14T10:49:31Z</time>
</trkpt>
<trkpt lat="40.7480677" lon="-4.01571869">
<ele>1592</ele>
<time>2015-11-14T10:49:33Z</time>
</trkpt>
<trkpt lat="40.74806914" lon="-4.01572456">
<ele>1591</ele>
<time>2015-11-14T10:49:35Z</time>
</trkpt>
<trkpt lat="40.74806985" lon="-4.01572223">
<ele>1590</ele>
<time>2015-11-14T10:49:37Z</time>
</trkpt>
<trkpt lat="40.74807079" lon="-4.01571404">
<ele>1589</ele>
<time>2015-11-14T10:49:39Z</time>
</trkpt>
<trkpt lat="40.7480722" lon="-4.01571257">
<ele>1590</ele>
<time>2015-11-14T10:49:41Z</time>
</trkpt>
<trkpt lat="40.74807246" lon="-4.01571233">
<ele>1589</ele>
<time>2015-11-14T10:49:43Z</time>
</trkpt>
<trkpt lat="40.74807141" lon="-4.01570952">
<ele>1588</ele>
<time>2015-11-14T10:49:45Z</time>
</trkpt>
<trkpt lat="40.74807123" lon="-4.01570946">
<ele>1588</ele>
<time>2015-11-14T10:49:47Z</time>
</trkpt>
<trkpt lat="40.74807151" lon="-4.0157087">
<ele>1588</ele>
<time>2015-11-14T10:49:49Z</time>
</trkpt>
<trkpt lat="40.7480715" lon="-4.01570767">
<ele>1588</ele>
<time>2015-11-14T10:49:51Z</time>
</trkpt>
<trkpt lat="40.74807149" lon="-4.01570678">
<ele>1588</ele>
<time>2015-11-14T10:49:53Z</time>
</trkpt>
<trkpt lat="40.7480715" lon="-4.01570631">
<ele>1588</ele>
<time>2015-11-14T10:49:55Z</time>
</trkpt>
<trkpt lat="40.74807152" lon="-4.01570558">
<ele>1588</ele>
<time>2015-11-14T10:49:57Z</time>
</trkpt>
<trkpt lat="40.7480716" lon="-4.01570501">
<ele>1588</ele>
<time>2015-11-14T10:49:59Z</time>
</trkpt>
<trkpt lat="40.74807166" lon="-4.01570474">
<ele>1588</ele>
<time>2015-11-14T10:50:01Z</time>
</trkpt>
<trkpt lat="40.74807205" lon="-4.01570595">
<ele>1588</ele>
<time>2015-11-14T10:50:03Z</time>
</trkpt>
<trkpt lat="40.74806411" lon="-4.01570879">
<ele>1588</ele>
<time>2015-11-14T10:50:05Z</time>
</trkpt>
<trkpt lat="40.74806009" lon="-4.01571417">
<ele>1586</ele>
<time>2015-11-14T10:50:07Z</time>
</trkpt>
<trkpt lat="40.74805383" lon="-4.01571675">
<ele>1586</ele>
<time>2015-11-14T10:50:09Z</time>
</trkpt>
<trkpt lat="40.74805972" lon="-4.01570633">
<ele>1587</ele>
<time>2015-11-14T10:50:11Z</time>
</trkpt>
<trkpt lat="40.74806009" lon="-4.01570136">
<ele>1587</ele>
<time>2015-11-14T10:50:13Z</time>
</trkpt>
<trkpt lat="40.74806337" lon="-4.01568318">
<ele>1589</ele>
<time>2015-11-14T10:50:15Z</time>
</trkpt>
<trkpt lat="40.74807222" lon="-4.01566345">
<ele>1589</ele>
<time>2015-11-14T10:50:17Z</time>
</trkpt>
<trkpt lat="40.74808163" lon="-4.01564067">
<ele>1589</ele>
<time>2015-11-14T10:50:19Z</time>
</trkpt>
<trkpt lat="40.74809146" lon="-4.01561769">
<ele>1588</ele>
<time>2015-11-14T10:50:21Z</time>
</trkpt>
<trkpt lat="40.74810342" lon="-4.0155962">
<ele>1587</ele>
<time>2015-11-14T10:50:23Z</time>
</trkpt>
<trkpt lat="40.74811827" lon="-4.01557605">
<ele>1586</ele>
<time>2015-11-14T10:50:25Z</time>
</trkpt>
<trkpt lat="40.74813517" lon="-4.01555028">
<ele>1587</ele>
<time>2015-11-14T10:50:27Z</time>
</trkpt>
<trkpt lat="40.7481535" lon="-4.01552912">
<ele>1589</ele>
<time>2015-11-14T10:50:29Z</time>
</trkpt>
<trkpt lat="40.74816712" lon="-4.01551187">
<ele>1589</ele>
<time>2015-11-14T10:50:31Z</time>
</trkpt>
<trkpt lat="40.74817055" lon="-4.01549372">
<ele>1587</ele>
<time>2015-11-14T10:50:33Z</time>
</trkpt>
<trkpt lat="40.74817705" lon="-4.01548199">
<ele>1587</ele>
<time>2015-11-14T10:50:35Z</time>
</trkpt>
<trkpt lat="40.74818083" lon="-4.01547844">
<ele>1587</ele>
<time>2015-11-14T10:50:37Z</time>
</trkpt>
<trkpt lat="40.74817493" lon="-4.01547381">
<ele>1587</ele>
<time>2015-11-14T10:50:39Z</time>
</trkpt>
<trkpt lat="40.74816521" lon="-4.01547414">
<ele>1587</ele>
<time>2015-11-14T10:50:41Z</time>
</trkpt>
<trkpt lat="40.74816367" lon="-4.01547321">
<ele>1587</ele>
<time>2015-11-14T10:50:43Z</time>
</trkpt>
<trkpt lat="40.74816353" lon="-4.01546652">
<ele>1587</ele>
<time>2015-11-14T10:50:45Z</time>
</trkpt>
<trkpt lat="40.74816567" lon="-4.01545233">
<ele>1586</ele>
<time>2015-11-14T10:50:47Z</time>
</trkpt>
<trkpt lat="40.74816136" lon="-4.01543808">
<ele>1585</ele>
<time>2015-11-14T10:50:49Z</time>
</trkpt>
<trkpt lat="40.74815537" lon="-4.01541837">
<ele>1585</ele>
<time>2015-11-14T10:50:51Z</time>
</trkpt>
<trkpt lat="40.74814972" lon="-4.015414">
<ele>1586</ele>
<time>2015-11-14T10:50:53Z</time>
</trkpt>
<trkpt lat="40.74815236" lon="-4.01541654">
<ele>1586</ele>
<time>2015-11-14T10:50:55Z</time>
</trkpt>
<trkpt lat="40.74815642" lon="-4.01542084">
<ele>1586</ele>
<time>2015-11-14T10:50:57Z</time>
</trkpt>
<trkpt lat="40.74816005" lon="-4.0154199">
<ele>1586</ele>
<time>2015-11-14T10:50:59Z</time>
</trkpt>
<trkpt lat="40.74816576" lon="-4.01541193">
<ele>1586</ele>
<time>2015-11-14T10:51:01Z</time>
</trkpt>
<trkpt lat="40.74815838" lon="-4.01539862">
<ele>1586</ele>
<time>2015-11-14T10:51:05Z</time>
</trkpt>
<trkpt lat="40.7481577" lon="-4.01540582">
<ele>1586</ele>
<time>2015-11-14T10:51:07Z</time>
</trkpt>
<trkpt lat="40.74816065" lon="-4.0154078">
<ele>1586</ele>
<time>2015-11-14T10:51:09Z</time>
</trkpt>
<trkpt lat="40.74816022" lon="-4.01540875">
<ele>1589</ele>
<time>2015-11-14T10:51:13Z</time>
</trkpt>
<trkpt lat="40.74816288" lon="-4.01540627">
<ele>1592</ele>
<time>2015-11-14T10:51:15Z</time>
</trkpt>
<trkpt lat="40.74816869" lon="-4.01539951">
<ele>1594</ele>
<time>2015-11-14T10:51:17Z</time>
</trkpt>
<trkpt lat="40.74817001" lon="-4.01540792">
<ele>1591</ele>
<time>2015-11-14T10:51:19Z</time>
</trkpt>
<trkpt lat="40.74817825" lon="-4.0154321">
<ele>1593</ele>
<time>2015-11-14T10:51:21Z</time>
</trkpt>
<trkpt lat="40.74818063" lon="-4.01544227">
<ele>1593</ele>
<time>2015-11-14T10:51:23Z</time>
</trkpt>
<trkpt lat="40.74817899" lon="-4.01545211">
<ele>1592</ele>
<time>2015-11-14T10:51:25Z</time>
</trkpt>
<trkpt lat="40.74817479" lon="-4.01545297">
<ele>1591</ele>
<time>2015-11-14T10:51:27Z</time>
</trkpt>
<trkpt lat="40.74817086" lon="-4.01545038">
<ele>1592</ele>
<time>2015-11-14T10:51:29Z</time>
</trkpt>
<trkpt lat="40.74816793" lon="-4.01545216">
<ele>1592</ele>
<time>2015-11-14T10:51:31Z</time>
</trkpt>
<trkpt lat="40.74816616" lon="-4.01545445">
<ele>1592</ele>
<time>2015-11-14T10:51:33Z</time>
</trkpt>
<trkpt lat="40.74816634" lon="-4.01545418">
<ele>1592</ele>
<time>2015-11-14T10:51:35Z</time>
</trkpt>
<trkpt lat="40.74816699" lon="-4.01545396">
<ele>1592</ele>
<time>2015-11-14T10:51:37Z</time>
</trkpt>
<trkpt lat="40.74816729" lon="-4.01545388">
<ele>1592</ele>
<time>2015-11-14T10:51:39Z</time>
</trkpt>
<trkpt lat="40.74816733" lon="-4.01545375">
<ele>1592</ele>
<time>2015-11-14T10:51:41Z</time>
</trkpt>
<trkpt lat="40.74816745" lon="-4.01545398">
<ele>1592</ele>
<time>2015-11-14T10:51:43Z</time>
</trkpt>
<trkpt lat="40.74816805" lon="-4.01545481">
<ele>1592</ele>
<time>2015-11-14T10:51:45Z</time>
</trkpt>
<trkpt lat="40.74816864" lon="-4.01545547">
<ele>1592</ele>
<time>2015-11-14T10:51:47Z</time>
</trkpt>
<trkpt lat="40.74816877" lon="-4.01545559">
<ele>1592</ele>
<time>2015-11-14T10:51:49Z</time>
</trkpt>
<trkpt lat="40.74816865" lon="-4.01545553">
<ele>1592</ele>
<time>2015-11-14T10:51:51Z</time>
</trkpt>
<trkpt lat="40.74816857" lon="-4.01545553">
<ele>1592</ele>
<time>2015-11-14T10:51:53Z</time>
</trkpt>
<trkpt lat="40.74816763" lon="-4.01545602">
<ele>1592</ele>
<time>2015-11-14T10:51:55Z</time>
</trkpt>
<trkpt lat="40.74816386" lon="-4.01544683">
<ele>1594</ele>
<time>2015-11-14T10:51:57Z</time>
</trkpt>
<trkpt lat="40.74815945" lon="-4.01544859">
<ele>1596</ele>
<time>2015-11-14T10:51:59Z</time>
</trkpt>
<trkpt lat="40.74815753" lon="-4.0154531">
<ele>1595</ele>
<time>2015-11-14T10:52:01Z</time>
</trkpt>
<trkpt lat="40.74815836" lon="-4.0154518">
<ele>1596</ele>
<time>2015-11-14T10:52:03Z</time>
</trkpt>
<trkpt lat="40.74816053" lon="-4.01544945">
<ele>1597</ele>
<time>2015-11-14T10:52:05Z</time>
</trkpt>
<trkpt lat="40.74816214" lon="-4.01545239">
<ele>1599</ele>
<time>2015-11-14T10:52:07Z</time>
</trkpt>
<trkpt lat="40.74816264" lon="-4.01545635">
<ele>1599</ele>
<time>2015-11-14T10:52:09Z</time>
</trkpt>
<trkpt lat="40.74816324" lon="-4.01545742">
<ele>1599</ele>
<time>2015-11-14T10:52:11Z</time>
</trkpt>
<trkpt lat="40.74816302" lon="-4.01545415">
<ele>1599</ele>
<time>2015-11-14T10:52:13Z</time>
</trkpt>
<trkpt lat="40.7481654" lon="-4.0154285">
<ele>1595</ele>
<time>2015-11-14T10:52:15Z</time>
</trkpt>
<trkpt lat="40.74818093" lon="-4.01541033">
<ele>1590</ele>
<time>2015-11-14T10:52:17Z</time>
</trkpt>
<trkpt lat="40.74819038" lon="-4.01540936">
<ele>1588</ele>
<time>2015-11-14T10:52:19Z</time>
</trkpt>
<trkpt lat="40.74819538" lon="-4.01541402">
<ele>1586</ele>
<time>2015-11-14T10:52:21Z</time>
</trkpt>
<trkpt lat="40.74819725" lon="-4.01541068">
<ele>1585</ele>
<time>2015-11-14T10:52:23Z</time>
</trkpt>
<trkpt lat="40.74819825" lon="-4.01541061">
<ele>1584</ele>
<time>2015-11-14T10:52:25Z</time>
</trkpt>
<trkpt lat="40.74819822" lon="-4.01540902">
<ele>1583</ele>
<time>2015-11-14T10:52:27Z</time>
</trkpt>
<trkpt lat="40.74819856" lon="-4.01540807">
<ele>1583</ele>
<time>2015-11-14T10:52:29Z</time>
</trkpt>
<trkpt lat="40.74819879" lon="-4.01540771">
<ele>1583</ele>
<time>2015-11-14T10:52:31Z</time>
</trkpt>
<trkpt lat="40.74819893" lon="-4.01540756">
<ele>1583</ele>
<time>2015-11-14T10:52:35Z</time>
</trkpt>
<trkpt lat="40.74819896" lon="-4.01540745">
<ele>1583</ele>
<time>2015-11-14T10:52:37Z</time>
</trkpt>
<trkpt lat="40.74819898" lon="-4.01540734">
<ele>1583</ele>
<time>2015-11-14T10:52:39Z</time>
</trkpt>
<trkpt lat="40.74819902" lon="-4.01540726">
<ele>1583</ele>
<time>2015-11-14T10:52:41Z</time>
</trkpt>
<trkpt lat="40.74819903" lon="-4.01540717">
<ele>1583</ele>
<time>2015-11-14T10:52:43Z</time>
</trkpt>
<trkpt lat="40.74819905" lon="-4.0154071">
<ele>1583</ele>
<time>2015-11-14T10:52:45Z</time>
</trkpt>
<trkpt lat="40.74819908" lon="-4.01540702">
<ele>1583</ele>
<time>2015-11-14T10:52:47Z</time>
</trkpt>
<trkpt lat="40.74819959" lon="-4.01540665">
<ele>1583</ele>
<time>2015-11-14T10:52:49Z</time>
</trkpt>
<trkpt lat="40.74821004" lon="-4.01540544">
<ele>1582</ele>
<time>2015-11-14T10:52:51Z</time>
</trkpt>
<trkpt lat="40.74821657" lon="-4.01539851">
<ele>1581</ele>
<time>2015-11-14T10:52:53Z</time>
</trkpt>
<trkpt lat="40.7482179" lon="-4.01539639">
<ele>1580</ele>
<time>2015-11-14T10:52:55Z</time>
</trkpt>
<trkpt lat="40.74821177" lon="-4.01539816">
<ele>1581</ele>
<time>2015-11-14T10:52:57Z</time>
</trkpt>
<trkpt lat="40.74821316" lon="-4.01539591">
<ele>1582</ele>
<time>2015-11-14T10:52:59Z</time>
</trkpt>
<trkpt lat="40.74821256" lon="-4.01539179">
<ele>1582</ele>
<time>2015-11-14T10:53:01Z</time>
</trkpt>
<trkpt lat="40.7482106" lon="-4.01538878">
<ele>1582</ele>
<time>2015-11-14T10:53:03Z</time>
</trkpt>
<trkpt lat="40.74821433" lon="-4.01538833">
<ele>1582</ele>
<time>2015-11-14T10:53:05Z</time>
</trkpt>
<trkpt lat="40.74820353" lon="-4.01538761">
<ele>1583</ele>
<time>2015-11-14T10:53:07Z</time>
</trkpt>
<trkpt lat="40.74819185" lon="-4.01539834">
<ele>1582</ele>
<time>2015-11-14T10:53:09Z</time>
</trkpt>
<trkpt lat="40.74818001" lon="-4.01542281">
<ele>1584</ele>
<time>2015-11-14T10:53:11Z</time>
</trkpt>
<trkpt lat="40.74817395" lon="-4.01545215">
<ele>1585</ele>
<time>2015-11-14T10:53:13Z</time>
</trkpt>
<trkpt lat="40.74817563" lon="-4.01545831">
<ele>1587</ele>
<time>2015-11-14T10:53:15Z</time>
</trkpt>
<trkpt lat="40.74817688" lon="-4.01545403">
<ele>1589</ele>
<time>2015-11-14T10:53:17Z</time>
</trkpt>
<trkpt lat="40.74817459" lon="-4.01544564">
<ele>1595</ele>
<time>2015-11-14T10:53:19Z</time>
</trkpt>
<trkpt lat="40.74817603" lon="-4.01544666">
<ele>1592</ele>
<time>2015-11-14T10:53:21Z</time>
</trkpt>
<trkpt lat="40.74817508" lon="-4.01544539">
<ele>1592</ele>
<time>2015-11-14T10:53:23Z</time>
</trkpt>
<trkpt lat="40.74817659" lon="-4.01544531">
<ele>1592</ele>
<time>2015-11-14T10:53:25Z</time>
</trkpt>
<trkpt lat="40.74817777" lon="-4.01544682">
<ele>1591</ele>
<time>2015-11-14T10:53:27Z</time>
</trkpt>
<trkpt lat="40.74817489" lon="-4.01544358">
<ele>1591</ele>
<time>2015-11-14T10:53:29Z</time>
</trkpt>
<trkpt lat="40.74817306" lon="-4.01544802">
<ele>1588</ele>
<time>2015-11-14T10:53:31Z</time>
</trkpt>
<trkpt lat="40.74818566" lon="-4.01547265">
<ele>1589</ele>
<time>2015-11-14T10:53:33Z</time>
</trkpt>
<trkpt lat="40.74818395" lon="-4.01547846">
<ele>1588</ele>
<time>2015-11-14T10:53:35Z</time>
</trkpt>
<trkpt lat="40.74818414" lon="-4.01547528">
<ele>1588</ele>
<time>2015-11-14T10:53:37Z</time>
</trkpt>
<trkpt lat="40.74818725" lon="-4.01547383">
<ele>1588</ele>
<time>2015-11-14T10:53:39Z</time>
</trkpt>
<trkpt lat="40.74818648" lon="-4.01547202">
<ele>1588</ele>
<time>2015-11-14T10:53:41Z</time>
</trkpt>
<trkpt lat="40.74818197" lon="-4.01547169">
<ele>1588</ele>
<time>2015-11-14T10:53:43Z</time>
</trkpt>
<trkpt lat="40.74817935" lon="-4.0154726">
<ele>1588</ele>
<time>2015-11-14T10:53:45Z</time>
</trkpt>
<trkpt lat="40.74817879" lon="-4.01547297">
<ele>1588</ele>
<time>2015-11-14T10:53:47Z</time>
</trkpt>
<trkpt lat="40.74817913" lon="-4.01547319">
<ele>1588</ele>
<time>2015-11-14T10:53:49Z</time>
</trkpt>
<trkpt lat="40.74817879" lon="-4.01547342">
<ele>1588</ele>
<time>2015-11-14T10:53:51Z</time>
</trkpt>
<trkpt lat="40.74818755" lon="-4.01547166">
<ele>1588</ele>
<time>2015-11-14T10:53:53Z</time>
</trkpt>
<trkpt lat="40.74819173" lon="-4.01545757">
<ele>1588</ele>
<time>2015-11-14T10:53:55Z</time>
</trkpt>
<trkpt lat="40.74819657" lon="-4.01544934">
<ele>1589</ele>
<time>2015-11-14T10:53:57Z</time>
</trkpt>
<trkpt lat="40.74820117" lon="-4.01543909">
<ele>1589</ele>
<time>2015-11-14T10:53:59Z</time>
</trkpt>
<trkpt lat="40.74820398" lon="-4.01543785">
<ele>1590</ele>
<time>2015-11-14T10:54:01Z</time>
</trkpt>
<trkpt lat="40.74820478" lon="-4.01543648">
<ele>1590</ele>
<time>2015-11-14T10:54:03Z</time>
</trkpt>
<trkpt lat="40.748206" lon="-4.01542874">
<ele>1590</ele>
<time>2015-11-14T10:54:05Z</time>
</trkpt>
<trkpt lat="40.74820727" lon="-4.0154271">
<ele>1590</ele>
<time>2015-11-14T10:54:07Z</time>
</trkpt>
<trkpt lat="40.74820999" lon="-4.01542757">
<ele>1589</ele>
<time>2015-11-14T10:54:09Z</time>
</trkpt>
<trkpt lat="40.74821147" lon="-4.01542681">
<ele>1590</ele>
<time>2015-11-14T10:54:11Z</time>
</trkpt>
<trkpt lat="40.74820973" lon="-4.01542829">
<ele>1590</ele>
<time>2015-11-14T10:54:13Z</time>
</trkpt>
<trkpt lat="40.74821035" lon="-4.01542773">
<ele>1590</ele>
<time>2015-11-14T10:54:15Z</time>
</trkpt>
<trkpt lat="40.74821548" lon="-4.01541885">
<ele>1590</ele>
<time>2015-11-14T10:54:17Z</time>
</trkpt>
<trkpt lat="40.74821466" lon="-4.01541126">
<ele>1590</ele>
<time>2015-11-14T10:54:19Z</time>
</trkpt>
<trkpt lat="40.74821648" lon="-4.01540941">
<ele>1591</ele>
<time>2015-11-14T10:54:21Z</time>
</trkpt>
<trkpt lat="40.74821714" lon="-4.01540864">
<ele>1591</ele>
<time>2015-11-14T10:54:23Z</time>
</trkpt>
<trkpt lat="40.74821393" lon="-4.01541121">
<ele>1591</ele>
<time>2015-11-14T10:54:25Z</time>
</trkpt>
<trkpt lat="40.74820836" lon="-4.01541197">
<ele>1591</ele>
<time>2015-11-14T10:54:27Z</time>
</trkpt>
<trkpt lat="40.74820684" lon="-4.01541484">
<ele>1591</ele>
<time>2015-11-14T10:54:29Z</time>
</trkpt>
<trkpt lat="40.7482077" lon="-4.01541719">
<ele>1591</ele>
<time>2015-11-14T10:54:33Z</time>
</trkpt>
<trkpt lat="40.74820778" lon="-4.01541636">
<ele>1591</ele>
<time>2015-11-14T10:54:35Z</time>
</trkpt>
<trkpt lat="40.74820781" lon="-4.01541494">
<ele>1591</ele>
<time>2015-11-14T10:54:37Z</time>
</trkpt>
<trkpt lat="40.74820775" lon="-4.01541403">
<ele>1591</ele>
<time>2015-11-14T10:54:39Z</time>
</trkpt>
<trkpt lat="40.7482183" lon="-4.01540749">
<ele>1592</ele>
<time>2015-11-14T10:54:41Z</time>
</trkpt>
<trkpt lat="40.74824111" lon="-4.01539544">
<ele>1590</ele>
<time>2015-11-14T10:54:43Z</time>
</trkpt>
<trkpt lat="40.74825339" lon="-4.01539221">
<ele>1590</ele>
<time>2015-11-14T10:54:45Z</time>
</trkpt>
<trkpt lat="40.74825514" lon="-4.01538809">
<ele>1590</ele>
<time>2015-11-14T10:54:47Z</time>
</trkpt>
<trkpt lat="40.74826462" lon="-4.01538874">
<ele>1591</ele>
<time>2015-11-14T10:54:49Z</time>
</trkpt>
<trkpt lat="40.74827525" lon="-4.01539064">
<ele>1592</ele>
<time>2015-11-14T10:54:51Z</time>
</trkpt>
<trkpt lat="40.74828015" lon="-4.01538966">
<ele>1593</ele>
<time>2015-11-14T10:54:53Z</time>
</trkpt>
<trkpt lat="40.74828248" lon="-4.01538959">
<ele>1593</ele>
<time>2015-11-14T10:54:55Z</time>
</trkpt>
<trkpt lat="40.74828288" lon="-4.01539109">
<ele>1593</ele>
<time>2015-11-14T10:54:57Z</time>
</trkpt>
<trkpt lat="40.74828334" lon="-4.01539084">
<ele>1593</ele>
<time>2015-11-14T10:54:59Z</time>
</trkpt>
<trkpt lat="40.74828394" lon="-4.01539037">
<ele>1594</ele>
<time>2015-11-14T10:55:01Z</time>
</trkpt>
<trkpt lat="40.74828595" lon="-4.01539114">
<ele>1594</ele>
<time>2015-11-14T10:55:03Z</time>
</trkpt>
<trkpt lat="40.74827427" lon="-4.01539481">
<ele>1593</ele>
<time>2015-11-14T10:55:05Z</time>
</trkpt>
<trkpt lat="40.74826225" lon="-4.01540078">
<ele>1591</ele>
<time>2015-11-14T10:55:07Z</time>
</trkpt>
<trkpt lat="40.74825011" lon="-4.01540314">
<ele>1590</ele>
<time>2015-11-14T10:55:09Z</time>
</trkpt>
<trkpt lat="40.74823922" lon="-4.01539325">
<ele>1589</ele>
<time>2015-11-14T10:55:11Z</time>
</trkpt>
<trkpt lat="40.74823524" lon="-4.01538084">
<ele>1588</ele>
<time>2015-11-14T10:55:13Z</time>
</trkpt>
<trkpt lat="40.74823471" lon="-4.01537222">
<ele>1588</ele>
<time>2015-11-14T10:55:15Z</time>
</trkpt>
<trkpt lat="40.7482354" lon="-4.01536377">
<ele>1589</ele>
<time>2015-11-14T10:55:17Z</time>
</trkpt>
<trkpt lat="40.74823797" lon="-4.01535861">
<ele>1589</ele>
<time>2015-11-14T10:55:19Z</time>
</trkpt>
<trkpt lat="40.74824402" lon="-4.01535501">
<ele>1589</ele>
<time>2015-11-14T10:55:21Z</time>
</trkpt>
<trkpt lat="40.74824451" lon="-4.01534705">
<ele>1589</ele>
<time>2015-11-14T10:55:23Z</time>
</trkpt>
<trkpt lat="40.74823702" lon="-4.01533633">
<ele>1590</ele>
<time>2015-11-14T10:55:25Z</time>
</trkpt>
<trkpt lat="40.74823447" lon="-4.0153283">
<ele>1590</ele>
<time>2015-11-14T10:55:27Z</time>
</trkpt>
<trkpt lat="40.74823846" lon="-4.01532376">
<ele>1590</ele>
<time>2015-11-14T10:55:29Z</time>
</trkpt>
<trkpt lat="40.74824046" lon="-4.01532211">
<ele>1590</ele>
<time>2015-11-14T10:55:31Z</time>
</trkpt>
<trkpt lat="40.74824262" lon="-4.01532208">
<ele>1589</ele>
<time>2015-11-14T10:55:33Z</time>
</trkpt>
<trkpt lat="40.74824353" lon="-4.01532189">
<ele>1589</ele>
<time>2015-11-14T10:55:35Z</time>
</trkpt>
<trkpt lat="40.74824406" lon="-4.01532157">
<ele>1589</ele>
<time>2015-11-14T10:55:37Z</time>
</trkpt>
<trkpt lat="40.74824391" lon="-4.01531885">
<ele>1589</ele>
<time>2015-11-14T10:55:39Z</time>
</trkpt>
<trkpt lat="40.74825618" lon="-4.01531905">
<ele>1591</ele>
<time>2015-11-14T10:55:41Z</time>
</trkpt>
<trkpt lat="40.74824751" lon="-4.0153118">
<ele>1588</ele>
<time>2015-11-14T10:55:43Z</time>
</trkpt>
<trkpt lat="40.74824656" lon="-4.01530473">
<ele>1590</ele>
<time>2015-11-14T10:55:45Z</time>
</trkpt>
<trkpt lat="40.74824178" lon="-4.01529766">
<ele>1588</ele>
<time>2015-11-14T10:55:47Z</time>
</trkpt>
<trkpt lat="40.74823586" lon="-4.01529651">
<ele>1589</ele>
<time>2015-11-14T10:55:51Z</time>
</trkpt>
<trkpt lat="40.74822716" lon="-4.01529098">
<ele>1588</ele>
<time>2015-11-14T10:55:55Z</time>
</trkpt>
<trkpt lat="40.74822507" lon="-4.01528439">
<ele>1589</ele>
<time>2015-11-14T10:55:57Z</time>
</trkpt>
<trkpt lat="40.74822372" lon="-4.01528023">
<ele>1589</ele>
<time>2015-11-14T10:55:59Z</time>
</trkpt>
<trkpt lat="40.7482255" lon="-4.01527872">
<ele>1589</ele>
<time>2015-11-14T10:56:01Z</time>
</trkpt>
<trkpt lat="40.74822961" lon="-4.01527621">
<ele>1591</ele>
<time>2015-11-14T10:56:03Z</time>
</trkpt>
<trkpt lat="40.74823496" lon="-4.01527593">
<ele>1590</ele>
<time>2015-11-14T10:56:05Z</time>
</trkpt>
<trkpt lat="40.74823759" lon="-4.01527634">
<ele>1590</ele>
<time>2015-11-14T10:56:07Z</time>
</trkpt>
<trkpt lat="40.74823932" lon="-4.01527609">
<ele>1590</ele>
<time>2015-11-14T10:56:09Z</time>
</trkpt>
<trkpt lat="40.74824" lon="-4.01527569">
<ele>1590</ele>
<time>2015-11-14T10:56:11Z</time>
</trkpt>
<trkpt lat="40.74823865" lon="-4.01527502">
<ele>1590</ele>
<time>2015-11-14T10:56:13Z</time>
</trkpt>
<trkpt lat="40.74823758" lon="-4.01527449">
<ele>1590</ele>
<time>2015-11-14T10:56:15Z</time>
</trkpt>
<trkpt lat="40.74823719" lon="-4.01527344">
<ele>1590</ele>
<time>2015-11-14T10:56:17Z</time>
</trkpt>
<trkpt lat="40.74824646" lon="-4.0152863">
<ele>1592</ele>
<time>2015-11-14T10:56:19Z</time>
</trkpt>
<trkpt lat="40.74825169" lon="-4.01528482">
<ele>1592</ele>
<time>2015-11-14T10:56:21Z</time>
</trkpt>
<trkpt lat="40.74826171" lon="-4.01528401">
<ele>1591</ele>
<time>2015-11-14T10:56:23Z</time>
</trkpt>
<trkpt lat="40.74826917" lon="-4.0152879">
<ele>1593</ele>
<time>2015-11-14T10:56:25Z</time>
</trkpt>
<trkpt lat="40.74827318" lon="-4.0152896">
<ele>1592</ele>
<time>2015-11-14T10:56:27Z</time>
</trkpt>
<trkpt lat="40.74826789" lon="-4.01527862">
<ele>1593</ele>
<time>2015-11-14T10:56:29Z</time>
</trkpt>
<trkpt lat="40.7482718" lon="-4.01527346">
<ele>1592</ele>
<time>2015-11-14T10:56:31Z</time>
</trkpt>
<trkpt lat="40.74827643" lon="-4.01527212">
<ele>1592</ele>
<time>2015-11-14T10:56:33Z</time>
</trkpt>
<trkpt lat="40.74827814" lon="-4.0152701">
<ele>1592</ele>
<time>2015-11-14T10:56:35Z</time>
</trkpt>
<trkpt lat="40.74828672" lon="-4.01527722">
<ele>1592</ele>
<time>2015-11-14T10:56:37Z</time>
</trkpt>
<trkpt lat="40.74829166" lon="-4.01527795">
<ele>1592</ele>
<time>2015-11-14T10:56:39Z</time>
</trkpt>
<trkpt lat="40.74832411" lon="-4.01528908">
<ele>1593</ele>
<time>2015-11-14T10:56:41Z</time>
</trkpt>
<trkpt lat="40.74830904" lon="-4.01528166">
<ele>1592</ele>
<time>2015-11-14T10:56:43Z</time>
</trkpt>
<trkpt lat="40.74830658" lon="-4.01527908">
<ele>1592</ele>
<time>2015-11-14T10:56:45Z</time>
</trkpt>
<trkpt lat="40.7483058" lon="-4.01527735">
<ele>1593</ele>
<time>2015-11-14T10:56:47Z</time>
</trkpt>
<trkpt lat="40.74830733" lon="-4.01526679">
<ele>1592</ele>
<time>2015-11-14T10:56:49Z</time>
</trkpt>
<trkpt lat="40.74830639" lon="-4.01526237">
<ele>1593</ele>
<time>2015-11-14T10:56:51Z</time>
</trkpt>
<trkpt lat="40.74830589" lon="-4.01526092">
<ele>1593</ele>
<time>2015-11-14T10:56:53Z</time>
</trkpt>
<trkpt lat="40.74830523" lon="-4.01526061">
<ele>1593</ele>
<time>2015-11-14T10:56:55Z</time>
</trkpt>
<trkpt lat="40.74830505" lon="-4.01526051">
<ele>1593</ele>
<time>2015-11-14T10:56:57Z</time>
</trkpt>
<trkpt lat="40.74830503" lon="-4.01526025">
<ele>1593</ele>
<time>2015-11-14T10:56:59Z</time>
</trkpt>
<trkpt lat="40.74830546" lon="-4.01526078">
<ele>1593</ele>
<time>2015-11-14T10:57:01Z</time>
</trkpt>
<trkpt lat="40.74830502" lon="-4.01526075">
<ele>1592</ele>
<time>2015-11-14T10:57:05Z</time>
</trkpt>
<trkpt lat="40.74830462" lon="-4.01526064">
<ele>1592</ele>
<time>2015-11-14T10:57:07Z</time>
</trkpt>
<trkpt lat="40.74830429" lon="-4.01526035">
<ele>1592</ele>
<time>2015-11-14T10:57:09Z</time>
</trkpt>
<trkpt lat="40.74830424" lon="-4.01526028">
<ele>1592</ele>
<time>2015-11-14T10:57:11Z</time>
</trkpt>
<trkpt lat="40.74830429" lon="-4.0152603">
<ele>1592</ele>
<time>2015-11-14T10:57:13Z</time>
</trkpt>
<trkpt lat="40.74830436" lon="-4.01526034">
<ele>1592</ele>
<time>2015-11-14T10:57:15Z</time>
</trkpt>
<trkpt lat="40.74830445" lon="-4.01526034">
<ele>1592</ele>
<time>2015-11-14T10:57:17Z</time>
</trkpt>
<trkpt lat="40.74830452" lon="-4.01526034">
<ele>1592</ele>
<time>2015-11-14T10:57:19Z</time>
</trkpt>
<trkpt lat="40.74830457" lon="-4.01526035">
<ele>1592</ele>
<time>2015-11-14T10:57:21Z</time>
</trkpt>
<trkpt lat="40.74830462" lon="-4.01526036">
<ele>1592</ele>
<time>2015-11-14T10:57:23Z</time>
</trkpt>
<trkpt lat="40.74830467" lon="-4.01526035">
<ele>1592</ele>
<time>2015-11-14T10:57:27Z</time>
</trkpt>
<trkpt lat="40.7483047" lon="-4.01526028">
<ele>1592</ele>
<time>2015-11-14T10:57:29Z</time>
</trkpt>
<trkpt lat="40.74830475" lon="-4.01526025">
<ele>1592</ele>
<time>2015-11-14T10:57:31Z</time>
</trkpt>
<trkpt lat="40.74830476" lon="-4.0152602">
<ele>1592</ele>
<time>2015-11-14T10:57:33Z</time>
</trkpt>
<trkpt lat="40.74830477" lon="-4.01526017">
<ele>1592</ele>
<time>2015-11-14T10:57:35Z</time>
</trkpt>
<trkpt lat="40.7483048" lon="-4.01526014">
<ele>1592</ele>
<time>2015-11-14T10:57:37Z</time>
</trkpt>
<trkpt lat="40.74830482" lon="-4.01526012">
<ele>1592</ele>
<time>2015-11-14T10:57:39Z</time>
</trkpt>
<trkpt lat="40.74830482" lon="-4.01526012">
<ele>1592</ele>
<time>2015-11-14T10:57:41Z</time>
</trkpt>
<trkpt lat="40.74830483" lon="-4.0152601">
<ele>1592</ele>
<time>2015-11-14T10:57:43Z</time>
</trkpt>
<trkpt lat="40.74830481" lon="-4.01526007">
<ele>1592</ele>
<time>2015-11-14T10:57:45Z</time>
</trkpt>
<trkpt lat="40.74831107" lon="-4.01525461">
<ele>1592</ele>
<time>2015-11-14T10:57:47Z</time>
</trkpt>
<trkpt lat="40.74832817" lon="-4.01523636">
<ele>1594</ele>
<time>2015-11-14T10:57:49Z</time>
</trkpt>
<trkpt lat="40.7483536" lon="-4.01519953">
<ele>1594</ele>
<time>2015-11-14T10:57:51Z</time>
</trkpt>
<trkpt lat="40.74835945" lon="-4.01518985">
<ele>1593</ele>
<time>2015-11-14T10:57:53Z</time>
</trkpt>
<trkpt lat="40.74836655" lon="-4.01518602">
<ele>1596</ele>
<time>2015-11-14T10:57:55Z</time>
</trkpt>
<trkpt lat="40.74836806" lon="-4.01518673">
<ele>1596</ele>
<time>2015-11-14T10:57:57Z</time>
</trkpt>
<trkpt lat="40.74837108" lon="-4.01518608">
<ele>1599</ele>
<time>2015-11-14T10:57:59Z</time>
</trkpt>
<trkpt lat="40.74837098" lon="-4.01518847">
<ele>1598</ele>
<time>2015-11-14T10:58:01Z</time>
</trkpt>
<trkpt lat="40.74837495" lon="-4.0151809">
<ele>1596</ele>
<time>2015-11-14T10:58:05Z</time>
</trkpt>
<trkpt lat="40.74837492" lon="-4.0151822">
<ele>1596</ele>
<time>2015-11-14T10:58:07Z</time>
</trkpt>
<trkpt lat="40.7483768" lon="-4.01518022">
<ele>1596</ele>
<time>2015-11-14T10:58:11Z</time>
</trkpt>
<trkpt lat="40.74838007" lon="-4.01517366">
<ele>1596</ele>
<time>2015-11-14T10:58:13Z</time>
</trkpt>
<trkpt lat="40.74837711" lon="-4.01516703">
<ele>1596</ele>
<time>2015-11-14T10:58:15Z</time>
</trkpt>
<trkpt lat="40.74836907" lon="-4.01515521">
<ele>1597</ele>
<time>2015-11-14T10:58:17Z</time>
</trkpt>
<trkpt lat="40.74836149" lon="-4.01514751">
<ele>1597</ele>
<time>2015-11-14T10:58:19Z</time>
</trkpt>
<trkpt lat="40.74835962" lon="-4.01514151">
<ele>1595</ele>
<time>2015-11-14T10:58:21Z</time>
</trkpt>
<trkpt lat="40.74835825" lon="-4.01513617">
<ele>1595</ele>
<time>2015-11-14T10:58:23Z</time>
</trkpt>
<trkpt lat="40.74836154" lon="-4.01512782">
<ele>1595</ele>
<time>2015-11-14T10:58:25Z</time>
</trkpt>
<trkpt lat="40.74836898" lon="-4.01511998">
<ele>1596</ele>
<time>2015-11-14T10:58:27Z</time>
</trkpt>
<trkpt lat="40.74837229" lon="-4.01511707">
<ele>1595</ele>
<time>2015-11-14T10:58:29Z</time>
</trkpt>
<trkpt lat="40.7483735" lon="-4.01511261">
<ele>1594</ele>
<time>2015-11-14T10:58:31Z</time>
</trkpt>
<trkpt lat="40.7483773" lon="-4.01510624">
<ele>1594</ele>
<time>2015-11-14T10:58:33Z</time>
</trkpt>
<trkpt lat="40.74839175" lon="-4.0150964">
<ele>1592</ele>
<time>2015-11-14T10:58:35Z</time>
</trkpt>
<trkpt lat="40.7484057" lon="-4.01507599">
<ele>1592</ele>
<time>2015-11-14T10:58:37Z</time>
</trkpt>
<trkpt lat="40.7484158" lon="-4.01505545">
<ele>1593</ele>
<time>2015-11-14T10:58:39Z</time>
</trkpt>
<trkpt lat="40.74842214" lon="-4.01504165">
<ele>1593</ele>
<time>2015-11-14T10:58:41Z</time>
</trkpt>
<trkpt lat="40.748428" lon="-4.01503909">
<ele>1593</ele>
<time>2015-11-14T10:58:43Z</time>
</trkpt>
<trkpt lat="40.74843233" lon="-4.01504163">
<ele>1592</ele>
<time>2015-11-14T10:58:45Z</time>
</trkpt>
<trkpt lat="40.74843586" lon="-4.01504137">
<ele>1591</ele>
<time>2015-11-14T10:58:47Z</time>
</trkpt>
<trkpt lat="40.74843695" lon="-4.01504848">
<ele>1592</ele>
<time>2015-11-14T10:58:49Z</time>
</trkpt>
<trkpt lat="40.7484341" lon="-4.01505629">
<ele>1591</ele>
<time>2015-11-14T10:58:51Z</time>
</trkpt>
<trkpt lat="40.7484359" lon="-4.01505344">
<ele>1593</ele>
<time>2015-11-14T10:58:53Z</time>
</trkpt>
<trkpt lat="40.74843854" lon="-4.01504471">
<ele>1595</ele>
<time>2015-11-14T10:58:55Z</time>
</trkpt>
<trkpt lat="40.74843736" lon="-4.01503834">
<ele>1593</ele>
<time>2015-11-14T10:58:57Z</time>
</trkpt>
<trkpt lat="40.7484389" lon="-4.01503691">
<ele>1593</ele>
<time>2015-11-14T10:58:59Z</time>
</trkpt>
<trkpt lat="40.74843697" lon="-4.01502283">
<ele>1595</ele>
<time>2015-11-14T10:59:01Z</time>
</trkpt>
<trkpt lat="40.74843572" lon="-4.01500884">
<ele>1596</ele>
<time>2015-11-14T10:59:03Z</time>
</trkpt>
<trkpt lat="40.74843553" lon="-4.01500205">
<ele>1597</ele>
<time>2015-11-14T10:59:05Z</time>
</trkpt>
<trkpt lat="40.74843274" lon="-4.01499136">
<ele>1598</ele>
<time>2015-11-14T10:59:07Z</time>
</trkpt>
<trkpt lat="40.74842853" lon="-4.01498598">
<ele>1597</ele>
<time>2015-11-14T10:59:09Z</time>
</trkpt>
<trkpt lat="40.74842694" lon="-4.01498084">
<ele>1598</ele>
<time>2015-11-14T10:59:11Z</time>
</trkpt>
<trkpt lat="40.74842639" lon="-4.01497871">
<ele>1598</ele>
<time>2015-11-14T10:59:13Z</time>
</trkpt>
<trkpt lat="40.7484259" lon="-4.01497786">
<ele>1598</ele>
<time>2015-11-14T10:59:15Z</time>
</trkpt>
<trkpt lat="40.74842566" lon="-4.01497763">
<ele>1598</ele>
<time>2015-11-14T10:59:17Z</time>
</trkpt>
<trkpt lat="40.74842562" lon="-4.01497768">
<ele>1598</ele>
<time>2015-11-14T10:59:19Z</time>
</trkpt>
<trkpt lat="40.74842558" lon="-4.01497754">
<ele>1598</ele>
<time>2015-11-14T10:59:21Z</time>
</trkpt>
<trkpt lat="40.74842552" lon="-4.01497728">
<ele>1598</ele>
<time>2015-11-14T10:59:23Z</time>
</trkpt>
<trkpt lat="40.74842743" lon="-4.01497611">
<ele>1598</ele>
<time>2015-11-14T10:59:25Z</time>
</trkpt>
<trkpt lat="40.74842926" lon="-4.01496893">
<ele>1597</ele>
<time>2015-11-14T10:59:27Z</time>
</trkpt>
<trkpt lat="40.74843159" lon="-4.01496454">
<ele>1597</ele>
<time>2015-11-14T10:59:29Z</time>
</trkpt>
<trkpt lat="40.74843218" lon="-4.01496401">
<ele>1596</ele>
<time>2015-11-14T10:59:31Z</time>
</trkpt>
<trkpt lat="40.74843473" lon="-4.01496128">
<ele>1597</ele>
<time>2015-11-14T10:59:33Z</time>
</trkpt>
<trkpt lat="40.74843852" lon="-4.01495383">
<ele>1595</ele>
<time>2015-11-14T10:59:35Z</time>
</trkpt>
<trkpt lat="40.74844261" lon="-4.014945">
<ele>1594</ele>
<time>2015-11-14T10:59:37Z</time>
</trkpt>
<trkpt lat="40.74844567" lon="-4.01493718">
<ele>1593</ele>
<time>2015-11-14T10:59:39Z</time>
</trkpt>
<trkpt lat="40.74844542" lon="-4.01491677">
<ele>1594</ele>
<time>2015-11-14T10:59:41Z</time>
</trkpt>
<trkpt lat="40.7484465" lon="-4.01491084">
<ele>1593</ele>
<time>2015-11-14T10:59:43Z</time>
</trkpt>
<trkpt lat="40.74844587" lon="-4.01490851">
<ele>1592</ele>
<time>2015-11-14T10:59:45Z</time>
</trkpt>
<trkpt lat="40.74844756" lon="-4.01489792">
<ele>1593</ele>
<time>2015-11-14T10:59:47Z</time>
</trkpt>
<trkpt lat="40.74844685" lon="-4.01488336">
<ele>1594</ele>
<time>2015-11-14T10:59:49Z</time>
</trkpt>
<trkpt lat="40.74844948" lon="-4.01490331">
<ele>1586</ele>
<time>2015-11-14T10:59:51Z</time>
</trkpt>
<trkpt lat="40.74846175" lon="-4.01495858">
<ele>1584</ele>
<time>2015-11-14T10:59:53Z</time>
</trkpt>
<trkpt lat="40.74846949" lon="-4.01496736">
<ele>1586</ele>
<time>2015-11-14T10:59:55Z</time>
</trkpt>
<trkpt lat="40.74847681" lon="-4.01496693">
<ele>1589</ele>
<time>2015-11-14T10:59:59Z</time>
</trkpt>
<trkpt lat="40.74847849" lon="-4.01496908">
<ele>1589</ele>
<time>2015-11-14T11:00:01Z</time>
</trkpt>
<trkpt lat="40.74847937" lon="-4.01496889">
<ele>1588</ele>
<time>2015-11-14T11:00:03Z</time>
</trkpt>
<trkpt lat="40.7484786" lon="-4.01496808">
<ele>1588</ele>
<time>2015-11-14T11:00:05Z</time>
</trkpt>
<trkpt lat="40.74848053" lon="-4.01496933">
<ele>1589</ele>
<time>2015-11-14T11:00:07Z</time>
</trkpt>
<trkpt lat="40.74848488" lon="-4.01497345">
<ele>1588</ele>
<time>2015-11-14T11:00:11Z</time>
</trkpt>
<trkpt lat="40.74849427" lon="-4.01496811">
<ele>1587</ele>
<time>2015-11-14T11:00:13Z</time>
</trkpt>
<trkpt lat="40.74850465" lon="-4.01496304">
<ele>1587</ele>
<time>2015-11-14T11:00:15Z</time>
</trkpt>
<trkpt lat="40.74850962" lon="-4.01494772">
<ele>1587</ele>
<time>2015-11-14T11:00:17Z</time>
</trkpt>
<trkpt lat="40.74851261" lon="-4.01493042">
<ele>1587</ele>
<time>2015-11-14T11:00:19Z</time>
</trkpt>
<trkpt lat="40.74851021" lon="-4.01492523">
<ele>1585</ele>
<time>2015-11-14T11:00:21Z</time>
</trkpt>
<trkpt lat="40.74851802" lon="-4.01493003">
<ele>1585</ele>
<time>2015-11-14T11:00:23Z</time>
</trkpt>
<trkpt lat="40.74851894" lon="-4.01493205">
<ele>1586</ele>
<time>2015-11-14T11:00:25Z</time>
</trkpt>
<trkpt lat="40.74852419" lon="-4.01493273">
<ele>1587</ele>
<time>2015-11-14T11:00:27Z</time>
</trkpt>
<trkpt lat="40.74853788" lon="-4.01494161">
<ele>1587</ele>
<time>2015-11-14T11:00:31Z</time>
</trkpt>
<trkpt lat="40.74854065" lon="-4.01493823">
<ele>1587</ele>
<time>2015-11-14T11:00:33Z</time>
</trkpt>
<trkpt lat="40.74854055" lon="-4.0149285">
<ele>1586</ele>
<time>2015-11-14T11:00:35Z</time>
</trkpt>
<trkpt lat="40.74854176" lon="-4.01491673">
<ele>1586</ele>
<time>2015-11-14T11:00:37Z</time>
</trkpt>
<trkpt lat="40.74854461" lon="-4.01491443">
<ele>1585</ele>
<time>2015-11-14T11:00:39Z</time>
</trkpt>
<trkpt lat="40.74854777" lon="-4.01490827">
<ele>1585</ele>
<time>2015-11-14T11:00:41Z</time>
</trkpt>
<trkpt lat="40.74854958" lon="-4.01490069">
<ele>1585</ele>
<time>2015-11-14T11:00:43Z</time>
</trkpt>
<trkpt lat="40.74855319" lon="-4.01489512">
<ele>1584</ele>
<time>2015-11-14T11:00:45Z</time>
</trkpt>
<trkpt lat="40.74855426" lon="-4.01489227">
<ele>1585</ele>
<time>2015-11-14T11:00:47Z</time>
</trkpt>
<trkpt lat="40.74855634" lon="-4.01488983">
<ele>1585</ele>
<time>2015-11-14T11:00:49Z</time>
</trkpt>
<trkpt lat="40.74856382" lon="-4.0148841">
<ele>1586</ele>
<time>2015-11-14T11:00:51Z</time>
</trkpt>
<trkpt lat="40.74856627" lon="-4.01486272">
<ele>1587</ele>
<time>2015-11-14T11:00:53Z</time>
</trkpt>
<trkpt lat="40.7485782" lon="-4.01484676">
<ele>1590</ele>
<time>2015-11-14T11:00:55Z</time>
</trkpt>
<trkpt lat="40.74858773" lon="-4.01484829">
<ele>1593</ele>
<time>2015-11-14T11:00:57Z</time>
</trkpt>
<trkpt lat="40.74859784" lon="-4.01484982">
<ele>1596</ele>
<time>2015-11-14T11:00:59Z</time>
</trkpt>
<trkpt lat="40.74860667" lon="-4.01484571">
<ele>1597</ele>
<time>2015-11-14T11:01:01Z</time>
</trkpt>
<trkpt lat="40.74861385" lon="-4.01484121">
<ele>1598</ele>
<time>2015-11-14T11:01:03Z</time>
</trkpt>
<trkpt lat="40.74861923" lon="-4.01484123">
<ele>1599</ele>
<time>2015-11-14T11:01:05Z</time>
</trkpt>
<trkpt lat="40.74861961" lon="-4.01484136">
<ele>1598</ele>
<time>2015-11-14T11:01:07Z</time>
</trkpt>
<trkpt lat="40.74861954" lon="-4.01484106">
<ele>1598</ele>
<time>2015-11-14T11:01:09Z</time>
</trkpt>
<trkpt lat="40.74862005" lon="-4.01483608">
<ele>1598</ele>
<time>2015-11-14T11:01:11Z</time>
</trkpt>
<trkpt lat="40.748624" lon="-4.0148076">
<ele>1599</ele>
<time>2015-11-14T11:01:15Z</time>
</trkpt>
<trkpt lat="40.74861942" lon="-4.01479129">
<ele>1598</ele>
<time>2015-11-14T11:01:17Z</time>
</trkpt>
<trkpt lat="40.74862425" lon="-4.01479014">
<ele>1599</ele>
<time>2015-11-14T11:01:19Z</time>
</trkpt>
<trkpt lat="40.74862248" lon="-4.01478161">
<ele>1598</ele>
<time>2015-11-14T11:01:21Z</time>
</trkpt>
<trkpt lat="40.74862003" lon="-4.01477287">
<ele>1599</ele>
<time>2015-11-14T11:01:23Z</time>
</trkpt>
<trkpt lat="40.7486208" lon="-4.01476878">
<ele>1598</ele>
<time>2015-11-14T11:01:25Z</time>
</trkpt>
<trkpt lat="40.74862189" lon="-4.01476724">
<ele>1598</ele>
<time>2015-11-14T11:01:27Z</time>
</trkpt>
<trkpt lat="40.74862277" lon="-4.01476743">
<ele>1598</ele>
<time>2015-11-14T11:01:29Z</time>
</trkpt>
<trkpt lat="40.74862339" lon="-4.01476766">
<ele>1598</ele>
<time>2015-11-14T11:01:31Z</time>
</trkpt>
<trkpt lat="40.74862368" lon="-4.01476753">
<ele>1598</ele>
<time>2015-11-14T11:01:33Z</time>
</trkpt>
<trkpt lat="40.74862372" lon="-4.01476722">
<ele>1598</ele>
<time>2015-11-14T11:01:35Z</time>
</trkpt>
<trkpt lat="40.74862372" lon="-4.01476735">
<ele>1598</ele>
<time>2015-11-14T11:01:37Z</time>
</trkpt>
<trkpt lat="40.74862359" lon="-4.01476744">
<ele>1598</ele>
<time>2015-11-14T11:01:39Z</time>
</trkpt>
<trkpt lat="40.74862246" lon="-4.01476181">
<ele>1599</ele>
<time>2015-11-14T11:01:41Z</time>
</trkpt>
<trkpt lat="40.74861237" lon="-4.01475717">
<ele>1599</ele>
<time>2015-11-14T11:01:43Z</time>
</trkpt>
<trkpt lat="40.74860935" lon="-4.01476052">
<ele>1599</ele>
<time>2015-11-14T11:01:45Z</time>
</trkpt>
<trkpt lat="40.74862238" lon="-4.0147643">
<ele>1597</ele>
<time>2015-11-14T11:01:47Z</time>
</trkpt>
<trkpt lat="40.74863406" lon="-4.01477146">
<ele>1597</ele>
<time>2015-11-14T11:01:49Z</time>
</trkpt>
<trkpt lat="40.74862366" lon="-4.01481465">
<ele>1598</ele>
<time>2015-11-14T11:01:51Z</time>
</trkpt>
<trkpt lat="40.74858677" lon="-4.01485213">
<ele>1597</ele>
<time>2015-11-14T11:01:53Z</time>
</trkpt>
<trkpt lat="40.74857312" lon="-4.01486437">
<ele>1597</ele>
<time>2015-11-14T11:01:55Z</time>
</trkpt>
<trkpt lat="40.7485753" lon="-4.01486054">
<ele>1597</ele>
<time>2015-11-14T11:01:57Z</time>
</trkpt>
<trkpt lat="40.74857868" lon="-4.01486167">
<ele>1599</ele>
<time>2015-11-14T11:01:59Z</time>
</trkpt>
<trkpt lat="40.7485928" lon="-4.01484937">
<ele>1595</ele>
<time>2015-11-14T11:02:01Z</time>
</trkpt>
<trkpt lat="40.74860261" lon="-4.01483572">
<ele>1593</ele>
<time>2015-11-14T11:02:03Z</time>
</trkpt>
<trkpt lat="40.74861272" lon="-4.01482616">
<ele>1594</ele>
<time>2015-11-14T11:02:05Z</time>
</trkpt>
<trkpt lat="40.7486204" lon="-4.01480836">
<ele>1594</ele>
<time>2015-11-14T11:02:07Z</time>
</trkpt>
<trkpt lat="40.74862876" lon="-4.01479534">
<ele>1592</ele>
<time>2015-11-14T11:02:09Z</time>
</trkpt>
<trkpt lat="40.74863388" lon="-4.01478512">
<ele>1592</ele>
<time>2015-11-14T11:02:11Z</time>
</trkpt>
<trkpt lat="40.7486375" lon="-4.01478273">
<ele>1592</ele>
<time>2015-11-14T11:02:13Z</time>
</trkpt>
<trkpt lat="40.74863678" lon="-4.01478214">
<ele>1593</ele>
<time>2015-11-14T11:02:15Z</time>
</trkpt>
<trkpt lat="40.74863341" lon="-4.01478366">
<ele>1591</ele>
<time>2015-11-14T11:02:17Z</time>
</trkpt>
<trkpt lat="40.74863471" lon="-4.01478927">
<ele>1593</ele>
<time>2015-11-14T11:02:19Z</time>
</trkpt>
<trkpt lat="40.74863982" lon="-4.01478236">
<ele>1593</ele>
<time>2015-11-14T11:02:21Z</time>
</trkpt>
<trkpt lat="40.74863327" lon="-4.01477699">
<ele>1593</ele>
<time>2015-11-14T11:02:23Z</time>
</trkpt>
<trkpt lat="40.7486301" lon="-4.01477583">
<ele>1593</ele>
<time>2015-11-14T11:02:25Z</time>
</trkpt>
<trkpt lat="40.74863" lon="-4.0147701">
<ele>1593</ele>
<time>2015-11-14T11:02:27Z</time>
</trkpt>
<trkpt lat="40.74863329" lon="-4.01476766">
<ele>1593</ele>
<time>2015-11-14T11:02:29Z</time>
</trkpt>
<trkpt lat="40.74863301" lon="-4.0147693">
<ele>1594</ele>
<time>2015-11-14T11:02:31Z</time>
</trkpt>
<trkpt lat="40.74863547" lon="-4.01476972">
<ele>1594</ele>
<time>2015-11-14T11:02:33Z</time>
</trkpt>
<trkpt lat="40.74863814" lon="-4.01476983">
<ele>1594</ele>
<time>2015-11-14T11:02:35Z</time>
</trkpt>
<trkpt lat="40.74863906" lon="-4.01477213">
<ele>1595</ele>
<time>2015-11-14T11:02:37Z</time>
</trkpt>
<trkpt lat="40.7486383" lon="-4.01477479">
<ele>1595</ele>
<time>2015-11-14T11:02:39Z</time>
</trkpt>
<trkpt lat="40.74863871" lon="-4.01477672">
<ele>1595</ele>
<time>2015-11-14T11:02:41Z</time>
</trkpt>
<trkpt lat="40.74863827" lon="-4.01477428">
<ele>1595</ele>
<time>2015-11-14T11:02:43Z</time>
</trkpt>
<trkpt lat="40.74864033" lon="-4.01477034">
<ele>1595</ele>
<time>2015-11-14T11:02:45Z</time>
</trkpt>
<trkpt lat="40.74864033" lon="-4.01477034">
<ele>1595</ele>
<time>2015-11-14T11:02:47Z</time>
</trkpt>
<trkpt lat="40.74864343" lon="-4.01476211">
<ele>1595</ele>
<time>2015-11-14T11:02:49Z</time>
</trkpt>
<trkpt lat="40.74864417" lon="-4.01476089">
<ele>1595</ele>
<time>2015-11-14T11:02:51Z</time>
</trkpt>
<trkpt lat="40.74864509" lon="-4.01476008">
<ele>1596</ele>
<time>2015-11-14T11:02:53Z</time>
</trkpt>
<trkpt lat="40.74864354" lon="-4.01475939">
<ele>1596</ele>
<time>2015-11-14T11:02:55Z</time>
</trkpt>
<trkpt lat="40.74864217" lon="-4.01475795">
<ele>1597</ele>
<time>2015-11-14T11:02:57Z</time>
</trkpt>
<trkpt lat="40.74864217" lon="-4.01475795">
<ele>1597</ele>
<time>2015-11-14T11:02:59Z</time>
</trkpt>
<trkpt lat="40.74863995" lon="-4.01475748">
<ele>1597</ele>
<time>2015-11-14T11:03:01Z</time>
</trkpt>
<trkpt lat="40.74863949" lon="-4.01475757">
<ele>1597</ele>
<time>2015-11-14T11:03:03Z</time>
</trkpt>
<trkpt lat="40.74863937" lon="-4.01475773">
<ele>1597</ele>
<time>2015-11-14T11:03:05Z</time>
</trkpt>
<trkpt lat="40.74863936" lon="-4.01475797">
<ele>1597</ele>
<time>2015-11-14T11:03:07Z</time>
</trkpt>
<trkpt lat="40.74863938" lon="-4.01475806">
<ele>1597</ele>
<time>2015-11-14T11:03:09Z</time>
</trkpt>
<trkpt lat="40.74863941" lon="-4.01475814">
<ele>1597</ele>
<time>2015-11-14T11:03:11Z</time>
</trkpt>
<trkpt lat="40.74863941" lon="-4.01475819">
<ele>1597</ele>
<time>2015-11-14T11:03:13Z</time>
</trkpt>
<trkpt lat="40.74863941" lon="-4.01475819">
<ele>1597</ele>
<time>2015-11-14T11:03:15Z</time>
</trkpt>
<trkpt lat="40.74863935" lon="-4.01475823">
<ele>1597</ele>
<time>2015-11-14T11:03:17Z</time>
</trkpt>
<trkpt lat="40.7486408" lon="-4.01477689">
<ele>1597</ele>
<time>2015-11-14T11:03:19Z</time>
</trkpt>
<trkpt lat="40.74864485" lon="-4.01476808">
<ele>1599</ele>
<time>2015-11-14T11:03:21Z</time>
</trkpt>
<trkpt lat="40.74864184" lon="-4.01476632">
<ele>1596</ele>
<time>2015-11-14T11:03:23Z</time>
</trkpt>
<trkpt lat="40.74864184" lon="-4.01476632">
<ele>1596</ele>
<time>2015-11-14T11:03:25Z</time>
</trkpt>
<trkpt lat="40.74864035" lon="-4.01476237">
<ele>1597</ele>
<time>2015-11-14T11:03:27Z</time>
</trkpt>
<trkpt lat="40.74863699" lon="-4.01475793">
<ele>1594</ele>
<time>2015-11-14T11:03:29Z</time>
</trkpt>
<trkpt lat="40.74863433" lon="-4.01475175">
<ele>1593</ele>
<time>2015-11-14T11:03:31Z</time>
</trkpt>
<trkpt lat="40.74863022" lon="-4.01474922">
<ele>1593</ele>
<time>2015-11-14T11:03:33Z</time>
</trkpt>
<trkpt lat="40.74862889" lon="-4.01474908">
<ele>1593</ele>
<time>2015-11-14T11:03:35Z</time>
</trkpt>
<trkpt lat="40.74862842" lon="-4.01474993">
<ele>1594</ele>
<time>2015-11-14T11:03:37Z</time>
</trkpt>
<trkpt lat="40.74862853" lon="-4.01475003">
<ele>1594</ele>
<time>2015-11-14T11:03:39Z</time>
</trkpt>
<trkpt lat="40.74862861" lon="-4.01475131">
<ele>1594</ele>
<time>2015-11-14T11:03:41Z</time>
</trkpt>
<trkpt lat="40.74862944" lon="-4.01475205">
<ele>1594</ele>
<time>2015-11-14T11:03:43Z</time>
</trkpt>
<trkpt lat="40.74862913" lon="-4.01475301">
<ele>1594</ele>
<time>2015-11-14T11:03:45Z</time>
</trkpt>
<trkpt lat="40.74862911" lon="-4.01475398">
<ele>1594</ele>
<time>2015-11-14T11:03:47Z</time>
</trkpt>
<trkpt lat="40.74862923" lon="-4.01475432">
<ele>1594</ele>
<time>2015-11-14T11:03:49Z</time>
</trkpt>
<trkpt lat="40.74862938" lon="-4.01475452">
<ele>1594</ele>
<time>2015-11-14T11:03:51Z</time>
</trkpt>
<trkpt lat="40.74862943" lon="-4.01475457">
<ele>1594</ele>
<time>2015-11-14T11:03:53Z</time>
</trkpt>
<trkpt lat="40.7486296" lon="-4.01475448">
<ele>1594</ele>
<time>2015-11-14T11:03:55Z</time>
</trkpt>
<trkpt lat="40.74862968" lon="-4.01475451">
<ele>1594</ele>
<time>2015-11-14T11:03:57Z</time>
</trkpt>
<trkpt lat="40.7486335" lon="-4.01476053">
<ele>1594</ele>
<time>2015-11-14T11:03:59Z</time>
</trkpt>
<trkpt lat="40.74863715" lon="-4.01477845">
<ele>1596</ele>
<time>2015-11-14T11:04:01Z</time>
</trkpt>
<trkpt lat="40.74864117" lon="-4.01478635">
<ele>1597</ele>
<time>2015-11-14T11:04:03Z</time>
</trkpt>
<trkpt lat="40.74863846" lon="-4.01478823">
<ele>1596</ele>
<time>2015-11-14T11:04:05Z</time>
</trkpt>
<trkpt lat="40.74864009" lon="-4.01478642">
<ele>1595</ele>
<time>2015-11-14T11:04:07Z</time>
</trkpt>
<trkpt lat="40.74864032" lon="-4.01478762">
<ele>1595</ele>
<time>2015-11-14T11:04:09Z</time>
</trkpt>
<trkpt lat="40.74864027" lon="-4.0147885">
<ele>1595</ele>
<time>2015-11-14T11:04:11Z</time>
</trkpt>
<trkpt lat="40.74864046" lon="-4.01478857">
<ele>1595</ele>
<time>2015-11-14T11:04:13Z</time>
</trkpt>
<trkpt lat="40.74864049" lon="-4.01478854">
<ele>1595</ele>
<time>2015-11-14T11:04:15Z</time>
</trkpt>
<trkpt lat="40.7486405" lon="-4.01478848">
<ele>1595</ele>
<time>2015-11-14T11:04:17Z</time>
</trkpt>
<trkpt lat="40.7486405" lon="-4.01478847">
<ele>1595</ele>
<time>2015-11-14T11:04:19Z</time>
</trkpt>
<trkpt lat="40.74864056" lon="-4.01478838">
<ele>1595</ele>
<time>2015-11-14T11:04:21Z</time>
</trkpt>
<trkpt lat="40.74864066" lon="-4.01478825">
<ele>1595</ele>
<time>2015-11-14T11:04:23Z</time>
</trkpt>
<trkpt lat="40.74864079" lon="-4.0147882">
<ele>1595</ele>
<time>2015-11-14T11:04:25Z</time>
</trkpt>
<trkpt lat="40.74864086" lon="-4.01478817">
<ele>1595</ele>
<time>2015-11-14T11:04:27Z</time>
</trkpt>
<trkpt lat="40.74864086" lon="-4.01478817">
<ele>1595</ele>
<time>2015-11-14T11:04:29Z</time>
</trkpt>
<trkpt lat="40.74864091" lon="-4.01478822">
<ele>1595</ele>
<time>2015-11-14T11:04:33Z</time>
</trkpt>
<trkpt lat="40.74864091" lon="-4.01478824">
<ele>1595</ele>
<time>2015-11-14T11:04:35Z</time>
</trkpt>
<trkpt lat="40.74864091" lon="-4.01478825">
<ele>1596</ele>
<time>2015-11-14T11:04:37Z</time>
</trkpt>
<trkpt lat="40.74863866" lon="-4.01479668">
<ele>1595</ele>
<time>2015-11-14T11:04:39Z</time>
</trkpt>
<trkpt lat="40.74864383" lon="-4.01479079">
<ele>1598</ele>
<time>2015-11-14T11:04:41Z</time>
</trkpt>
<trkpt lat="40.74864727" lon="-4.01478534">
<ele>1597</ele>
<time>2015-11-14T11:04:43Z</time>
</trkpt>
<trkpt lat="40.74864982" lon="-4.01477844">
<ele>1597</ele>
<time>2015-11-14T11:04:45Z</time>
</trkpt>
<trkpt lat="40.74864766" lon="-4.01476755">
<ele>1597</ele>
<time>2015-11-14T11:04:47Z</time>
</trkpt>
<trkpt lat="40.74864823" lon="-4.01476324">
<ele>1596</ele>
<time>2015-11-14T11:04:49Z</time>
</trkpt>
<trkpt lat="40.74865141" lon="-4.01476249">
<ele>1598</ele>
<time>2015-11-14T11:04:51Z</time>
</trkpt>
<trkpt lat="40.7486507" lon="-4.01476449">
<ele>1597</ele>
<time>2015-11-14T11:04:53Z</time>
</trkpt>
<trkpt lat="40.74864914" lon="-4.01476843">
<ele>1597</ele>
<time>2015-11-14T11:04:55Z</time>
</trkpt>
<trkpt lat="40.74864747" lon="-4.01477174">
<ele>1597</ele>
<time>2015-11-14T11:04:57Z</time>
</trkpt>
<trkpt lat="40.74865181" lon="-4.01477349">
<ele>1597</ele>
<time>2015-11-14T11:04:59Z</time>
</trkpt>
<trkpt lat="40.74865506" lon="-4.01477097">
<ele>1598</ele>
<time>2015-11-14T11:05:01Z</time>
</trkpt>
<trkpt lat="40.74865506" lon="-4.01476979">
<ele>1598</ele>
<time>2015-11-14T11:05:03Z</time>
</trkpt>
<trkpt lat="40.74864698" lon="-4.01476951">
<ele>1596</ele>
<time>2015-11-14T11:05:05Z</time>
</trkpt>
<trkpt lat="40.74865201" lon="-4.01476211">
<ele>1595</ele>
<time>2015-11-14T11:05:07Z</time>
</trkpt>
<trkpt lat="40.74863878" lon="-4.01476021">
<ele>1593</ele>
<time>2015-11-14T11:05:09Z</time>
</trkpt>
<trkpt lat="40.74862469" lon="-4.01475616">
<ele>1592</ele>
<time>2015-11-14T11:05:11Z</time>
</trkpt>
<trkpt lat="40.74862482" lon="-4.01475561">
<ele>1592</ele>
<time>2015-11-14T11:05:13Z</time>
</trkpt>
<trkpt lat="40.7486157" lon="-4.01475909">
<ele>1592</ele>
<time>2015-11-14T11:05:15Z</time>
</trkpt>
<trkpt lat="40.74861141" lon="-4.01475488">
<ele>1593</ele>
<time>2015-11-14T11:05:17Z</time>
</trkpt>
<trkpt lat="40.74860993" lon="-4.01476212">
<ele>1594</ele>
<time>2015-11-14T11:05:19Z</time>
</trkpt>
<trkpt lat="40.7486057" lon="-4.01476942">
<ele>1593</ele>
<time>2015-11-14T11:05:21Z</time>
</trkpt>
<trkpt lat="40.74860353" lon="-4.01476982">
<ele>1594</ele>
<time>2015-11-14T11:05:23Z</time>
</trkpt>
<trkpt lat="40.74860297" lon="-4.01476785">
<ele>1594</ele>
<time>2015-11-14T11:05:25Z</time>
</trkpt>
<trkpt lat="40.74860363" lon="-4.01476321">
<ele>1594</ele>
<time>2015-11-14T11:05:27Z</time>
</trkpt>
<trkpt lat="40.74860381" lon="-4.01476232">
<ele>1594</ele>
<time>2015-11-14T11:05:29Z</time>
</trkpt>
<trkpt lat="40.74860387" lon="-4.01476213">
<ele>1594</ele>
<time>2015-11-14T11:05:31Z</time>
</trkpt>
<trkpt lat="" lon="">
<ele></ele>
<time>2015-11-14TZ</time>
</trkpt>
</trkseg>
</trk>
<wpt lat="" lon="">
	<name></name>
	<desc></desc>
	<cmt></cmt>
	<photoid></photoid>
	<type></type>
</wpt>
</gpx>
